Summary for KCOLONGM6

Ute Creek Golf Course, Longmont, CO 80504
Join the PWSweather.com Network
View data in metric units
Latest Conditions
Updated 11:06:49 AM MST Sunday, Feb 1, 2015
Data Currently Today's Max Today's Min Today's Average
Temperature 26.1°F-3.3°C 31.5°F-0.3°C 20.7°F-6.3°C 24.3°F-4.3°C
Dew Point 19.2°F-7.1°C 24.3°F-4.3°C 15.1°F-9.4°C 17.9°F-7.8°C
Winds 2.9 mph S4.7 kmh S 8.1 mph NNE13.0 kmh NNE CalmCalm 1.8 mph2.9 kmh
Wind Gusts 6.9 mph11.1 kmh 17.0 mph27.4 kmh -- 3.7 mph6.0 kmh
Humidity 75% 82% 69% 76%
Pressure 30.29 in1025.7 mb 30.29 in1025.7 mb 30.01 in1016.3 mb 30.16 in1021.3 mb
Precipitation 0.00 in0.0 mm - - 0.00 in0.0 mm
Trends
 
Station Profile
Ute Creek Golf CourseLongmont, CO 80504

Lat: 40.194, Lon: -105.067
Elevation: 5014
Station Type: Davis Vantage Vue

Detailed Summary for Sun, Feb 01, 2015
Hour (MST) Temperature Dew Point Humidity Winds Wind Gusts Pressure Precip Precip Rate Daily Precip Total
11:06 AM 26.1°F-3.3°C 19.2°F-7.1°C 75% 2.9 mph S4.7 kmh S 6.9 mph11.1 kmh 30.29 in1025.7 mb 0.00 in0.0 mm 0.00 in/hr0.0 mm/hr 0.00 in0.0 mm
11:05 AM 26.2°F-3.2°C 19.4°F-7.0°C 75% 2.9 mph S4.7 kmh S 6.0 mph9.7 kmh 30.29 in1025.7 mb 0.00 in0.0 mm 0.00 in/hr0.0 mm/hr 0.00 in0.0 mm
11:04 AM 26.1°F-3.3°C 19.2°F-7.1°C 75% 2.9 mph S4.7 kmh S 4.0 mph6.4 kmh 30.29 in1025.7 mb 0.00 in0.0 mm 0.00 in/hr0.0 mm/hr 0.00 in0.0 mm
11:03 AM 26.1°F-3.3°C 19.2°F-7.1°C 75% 2.9 mph SE4.7 kmh SE 4.0 mph6.4 kmh 30.29 in1025.7 mb 0.00 in0.0 mm 0.00 in/hr0.0 mm/hr 0.00 in0.0 mm
11:02 AM 26.1°F-3.3°C 19.2°F-7.1°C 75% 2.9 mph SE4.7 kmh SE 4.9 mph7.9 kmh 30.29 in1025.7 mb 0.00 in0.0 mm 0.00 in/hr0.0 mm/hr 0.00 in0.0 mm
11:01 AM 26.1°F-3.3°C 19.2°F-7.1°C 75% 2.9 mph SE4.7 kmh SE 4.0 mph6.4 kmh 30.29 in1025.7 mb 0.00 in0.0 mm 0.00 in/hr0.0 mm/hr 0.00 in0.0 mm
11:00 AM 25.9°F-3.4°C 19.0°F-7.2°C 75% 4.0 mph S6.4 kmh S 2.9 mph4.7 kmh 30.29 in1025.7 mb 0.00 in0.0 mm 0.00 in/hr0.0 mm/hr 0.00 in0.0 mm
10:59 AM 25.9°F-3.4°C 18.7°F-7.4°C 74% 4.0 mph SSE6.4 kmh SSE 2.9 mph4.7 kmh 30.29 in1025.7 mb 0.00 in0.0 mm 0.00 in/hr0.0 mm/hr 0.00 in0.0 mm
10:58 AM 25.9°F-3.4°C 19.0°F-7.2°C 75% 4.0 mph SE6.4 kmh SE 6.0 mph9.7 kmh 30.29 in1025.7 mb 0.00 in0.0 mm 0.00 in/hr0.0 mm/hr 0.00 in0.0 mm
10:57 AM 25.9°F-3.4°C 18.7°F-7.4°C 74% 2.9 mph SSW4.7 kmh SSW 4.0 mph6.4 kmh 30.29 in1025.7 mb 0.00 in0.0 mm 0.00 in/hr0.0 mm/hr 0.00 in0.0 mm
10:56 AM 25.9°F-3.4°C 19.0°F-7.2°C 75% 2.9 mph SSE4.7 kmh SSE 6.0 mph9.7 kmh 30.29 in1025.7 mb 0.00 in0.0 mm 0.00 in/hr0.0 mm/hr 0.00 in0.0 mm
10:55 AM 25.9°F-3.4°C 18.7°F-7.4°C 74% 2.9 mph SSW4.7 kmh SSW 6.0 mph9.7 kmh 30.29 in1025.7 mb 0.00 in0.0 mm 0.00 in/hr0.0 mm/hr 0.00 in0.0 mm
10:54 AM 25.9°F-3.4°C 18.7°F-7.4°C 74% 2.9 mph S4.7 kmh S 6.0 mph9.7 kmh 30.29 in1025.7 mb 0.00 in0.0 mm 0.00 in/hr0.0 mm/hr 0.00 in0.0 mm
10:53 AM 25.9°F-3.4°C 19.0°F-7.2°C 75% 2.9 mph SSE4.7 kmh SSE 6.0 mph9.7 kmh 30.29 in1025.7 mb 0.00 in0.0 mm 0.00 in/hr0.0 mm/hr 0.00 in0.0 mm
10:52 AM 25.9°F-3.4°C 19.0°F-7.2°C 75% 2.9 mph SE4.7 kmh SE 8.1 mph13.0 kmh 30.29 in1025.7 mb 0.00 in0.0 mm 0.00 in/hr0.0 mm/hr 0.00 in0.0 mm
10:51 AM 25.9°F-3.4°C 19.0°F-7.2°C 75% 2.9 mph SE4.7 kmh SE 8.1 mph13.0 kmh 30.29 in1025.7 mb 0.00 in0.0 mm 0.00 in/hr0.0 mm/hr 0.00 in0.0 mm
10:50 AM 25.9°F-3.4°C 19.4°F-7.0°C 76% 2.0 mph S3.2 kmh S 6.0 mph9.7 kmh 30.29 in1025.7 mb 0.00 in0.0 mm 0.00 in/hr0.0 mm/hr 0.00 in0.0 mm
10:49 AM 25.7°F-3.5°C 19.6°F-6.9°C 77% 2.0 mph S3.2 kmh S 2.9 mph4.7 kmh 30.29 in1025.7 mb 0.00 in0.0 mm 0.00 in/hr0.0 mm/hr 0.00 in0.0 mm
10:48 AM 25.5°F-3.6°C 19.4°F-7.0°C 77% 2.0 mph ESE3.2 kmh ESE 2.9 mph4.7 kmh 30.29 in1025.7 mb 0.00 in0.0 mm 0.00 in/hr0.0 mm/hr 0.00 in0.0 mm
10:47 AM 25.5°F-3.6°C 19.4°F-7.0°C 77% 2.9 mph SE4.7 kmh SE 4.9 mph7.9 kmh 30.29 in1025.7 mb 0.00 in0.0 mm 0.00 in/hr0.0 mm/hr 0.00 in0.0 mm
10:46 AM 25.3°F-3.7°C 19.2°F-7.1°C 77% 2.9 mph S4.7 kmh S 4.9 mph7.9 kmh 30.29 in1025.7 mb 0.00 in0.0 mm 0.00 in/hr0.0 mm/hr 0.00 in0.0 mm
10:45 AM 25.3°F-3.7°C 18.9°F-7.3°C 76% 2.9 mph SSE4.7 kmh SSE 4.9 mph7.9 kmh 30.29 in1025.7 mb 0.00 in0.0 mm 0.00 in/hr0.0 mm/hr 0.00 in0.0 mm
10:44 AM 25.3°F-3.7°C 19.2°F-7.1°C 77% 2.9 mph SE4.7 kmh SE 4.9 mph7.9 kmh 30.28 in1025.4 mb 0.00 in0.0 mm 0.00 in/hr0.0 mm/hr 0.00 in0.0 mm
10:43 AM 25.2°F-3.8°C 19.0°F-7.2°C 77% 2.9 mph S4.7 kmh S 4.0 mph6.4 kmh 30.28 in1025.4 mb 0.00 in0.0 mm 0.00 in/hr0.0 mm/hr 0.00 in0.0 mm
10:42 AM 25.2°F-3.8°C 18.7°F-7.4°C 76% 2.9 mph SE4.7 kmh SE 4.0 mph6.4 kmh 30.28 in1025.4 mb 0.00 in0.0 mm 0.00 in/hr0.0 mm/hr 0.00 in0.0 mm
10:41 AM 25.2°F-3.8°C 18.3°F-7.6°C 75% 2.9 mph SE4.7 kmh SE 2.9 mph4.7 kmh 30.28 in1025.4 mb 0.00 in0.0 mm 0.00 in/hr0.0 mm/hr 0.00 in0.0 mm
10:40 AM 25.2°F-3.8°C 18.0°F-7.8°C 74% 2.9 mph S4.7 kmh S 2.9 mph4.7 kmh 30.28 in1025.4 mb 0.00 in0.0 mm 0.00 in/hr0.0 mm/hr 0.00 in0.0 mm
10:39 AM 25.3°F-3.7°C 18.1°F-7.7°C 74% 2.9 mph SSW4.7 kmh SSW 2.9 mph4.7 kmh 30.28 in1025.4 mb 0.00 in0.0 mm 0.00 in/hr0.0 mm/hr 0.00 in0.0 mm
10:38 AM 25.3°F-3.7°C 18.5°F-7.5°C 75% 2.9 mph SW4.7 kmh SW 4.9 mph7.9 kmh 30.28 in1025.4 mb 0.00 in0.0 mm 0.00 in/hr0.0 mm/hr 0.00 in0.0 mm
10:37 AM 25.3°F-3.7°C 18.5°F-7.5°C 75% 2.0 mph S3.2 kmh S 6.0 mph9.7 kmh 30.28 in1025.4 mb 0.00 in0.0 mm 0.00 in/hr0.0 mm/hr 0.00 in0.0 mm
10:36 AM 25.3°F-3.7°C 19.2°F-7.1°C 77% 2.0 mph SSE3.2 kmh SSE 4.0 mph6.4 kmh 30.28 in1025.4 mb 0.00 in0.0 mm 0.00 in/hr0.0 mm/hr 0.00 in0.0 mm
10:35 AM 25.3°F-3.7°C 19.2°F-7.1°C 77% 2.0 mph S3.2 kmh S 4.9 mph7.9 kmh 30.28 in1025.4 mb 0.00 in0.0 mm 0.00 in/hr0.0 mm/hr 0.00 in0.0 mm
10:34 AM 25.3°F-3.7°C 19.2°F-7.1°C 77% 2.0 mph SE3.2 kmh SE 4.9 mph7.9 kmh 30.28 in1025.4 mb 0.00 in0.0 mm 0.00 in/hr0.0 mm/hr 0.00 in0.0 mm
10:33 AM 25.3°F-3.7°C 18.9°F-7.3°C 76% 2.0 mph SSE3.2 kmh SSE 2.9 mph4.7 kmh 30.28 in1025.4 mb 0.00 in0.0 mm 0.00 in/hr0.0 mm/hr 0.00 in0.0 mm
10:32 AM 25.3°F-3.7°C 18.9°F-7.3°C 76% 2.0 mph S3.2 kmh S 7.0 mph11.3 kmh 30.28 in1025.4 mb 0.00 in0.0 mm 0.00 in/hr0.0 mm/hr 0.00 in0.0 mm
10:31 AM 25.2°F-3.8°C 18.7°F-7.4°C 76% 2.0 mph S3.2 kmh S 7.0 mph11.3 kmh 30.28 in1025.4 mb 0.00 in0.0 mm 0.00 in/hr0.0 mm/hr 0.00 in0.0 mm
10:30 AM 25.2°F-3.8°C 19.0°F-7.2°C 77% 2.0 mph E3.2 kmh E 4.9 mph7.9 kmh 30.28 in1025.4 mb 0.00 in0.0 mm 0.00 in/hr0.0 mm/hr 0.00 in0.0 mm
10:29 AM 25.2°F-3.8°C 19.2°F-7.1°C 78% 2.9 mph ENE4.7 kmh ENE 4.0 mph6.4 kmh 30.28 in1025.4 mb 0.00 in0.0 mm 0.00 in/hr0.0 mm/hr 0.00 in0.0 mm
10:28 AM 25.2°F-3.8°C 19.2°F-7.1°C 78% 2.9 mph SSE4.7 kmh SSE 0.9 mph1.4 kmh 30.28 in1025.4 mb 0.00 in0.0 mm 0.00 in/hr0.0 mm/hr 0.00 in0.0 mm
10:27 AM 25.0°F-3.9°C 18.9°F-7.3°C 77% 2.9 mph SE4.7 kmh SE 2.9 mph4.7 kmh 30.28 in1025.4 mb 0.00 in0.0 mm 0.00 in/hr0.0 mm/hr 0.00 in0.0 mm
10:26 AM 25.0°F-3.9°C 18.9°F-7.3°C 77% 2.9 mph ESE4.7 kmh ESE 4.0 mph6.4 kmh 30.28 in1025.4 mb 0.00 in0.0 mm 0.00 in/hr0.0 mm/hr 0.00 in0.0 mm
10:25 AM 25.0°F-3.9°C 18.5°F-7.5°C 76% 2.9 mph S4.7 kmh S 6.0 mph9.7 kmh 30.28 in1025.4 mb 0.00 in0.0 mm 0.00 in/hr0.0 mm/hr 0.00 in0.0 mm
10:24 AM 25.0°F-3.9°C 18.1°F-7.7°C 75% 2.9 mph S4.7 kmh S 4.0 mph6.4 kmh 30.28 in1025.4 mb 0.00 in0.0 mm 0.00 in/hr0.0 mm/hr 0.00 in0.0 mm
10:23 AM 25.0°F-3.9°C 18.0°F-7.8°C 74% 2.9 mph SE4.7 kmh SE 2.9 mph4.7 kmh 30.28 in1025.4 mb 0.00 in0.0 mm 0.00 in/hr0.0 mm/hr 0.00 in0.0 mm
10:22 AM 25.0°F-3.9°C 18.1°F-7.7°C 75% 2.9 mph SE4.7 kmh SE 6.9 mph11.1 kmh 30.28 in1025.4 mb 0.00 in0.0 mm 0.00 in/hr0.0 mm/hr 0.00 in0.0 mm
10:21 AM 25.2°F-3.8°C 18.7°F-7.4°C 76% 2.0 mph SE3.2 kmh SE 6.9 mph11.1 kmh 30.28 in1025.4 mb 0.00 in0.0 mm 0.00 in/hr0.0 mm/hr 0.00 in0.0 mm
10:19 AM 25.2°F-3.8°C 19.0°F-7.2°C 77% 2.0 mph S3.2 kmh S 2.9 mph4.7 kmh 30.28 in1025.4 mb 0.00 in0.0 mm 0.00 in/hr0.0 mm/hr 0.00 in0.0 mm
10:18 AM 25.3°F-3.7°C 18.5°F-7.5°C 75% 2.0 mph S3.2 kmh S 4.9 mph7.9 kmh 30.28 in1025.4 mb 0.00 in0.0 mm 0.00 in/hr0.0 mm/hr 0.00 in0.0 mm
10:17 AM 25.3°F-3.7°C 18.9°F-7.3°C 76% 2.0 mph SE3.2 kmh SE 7.0 mph11.3 kmh 30.28 in1025.4 mb 0.00 in0.0 mm 0.00 in/hr0.0 mm/hr 0.00 in0.0 mm
10:16 AM 25.5°F-3.6°C 19.9°F-6.7°C 79% 2.0 mph ESE3.2 kmh ESE 6.0 mph9.7 kmh 30.28 in1025.4 mb 0.00 in0.0 mm 0.00 in/hr0.0 mm/hr 0.00 in0.0 mm
10:15 AM 25.5°F-3.6°C 19.6°F-6.9°C 78% 2.0 mph SE3.2 kmh SE 4.0 mph6.4 kmh 30.28 in1025.4 mb 0.00 in0.0 mm 0.00 in/hr0.0 mm/hr 0.00 in0.0 mm
10:14 AM 25.3°F-3.7°C 19.2°F-7.1°C 77% 2.0 mph SSE3.2 kmh SSE 4.0 mph6.4 kmh 30.27 in1025.1 mb 0.00 in0.0 mm 0.00 in/hr0.0 mm/hr 0.00 in0.0 mm
10:13 AM 25.3°F-3.7°C 19.2°F-7.1°C 77% 2.0 mph SE3.2 kmh SE 0.9 mph1.4 kmh 30.27 in1025.1 mb 0.00 in0.0 mm 0.00 in/hr0.0 mm/hr 0.00 in0.0 mm
10:12 AM 25.3°F-3.7°C 19.2°F-7.1°C 77% 2.9 mph SE4.7 kmh SE 2.0 mph3.2 kmh 30.27 in1025.1 mb 0.00 in0.0 mm 0.00 in/hr0.0 mm/hr 0.00 in0.0 mm
10:11 AM 25.3°F-3.7°C 18.9°F-7.3°C 76% 2.9 mph S4.7 kmh S 2.9 mph4.7 kmh 30.27 in1025.1 mb 0.00 in0.0 mm 0.00 in/hr0.0 mm/hr 0.00 in0.0 mm
10:10 AM 25.2°F-3.8°C 19.0°F-7.2°C 77% 2.9 mph S4.7 kmh S 6.0 mph9.7 kmh 30.27 in1025.1 mb 0.00 in0.0 mm 0.00 in/hr0.0 mm/hr 0.00 in0.0 mm
10:09 AM 25.2°F-3.8°C 19.0°F-7.2°C 77% 2.9 mph SSE4.7 kmh SSE 6.0 mph9.7 kmh 30.27 in1025.1 mb 0.00 in0.0 mm 0.00 in/hr0.0 mm/hr 0.00 in0.0 mm
10:08 AM 25.2°F-3.8°C 19.0°F-7.2°C 77% 2.9 mph S4.7 kmh S 4.0 mph6.4 kmh 30.27 in1025.1 mb 0.00 in0.0 mm 0.00 in/hr0.0 mm/hr 0.00 in0.0 mm
10:07 AM 25.0°F-3.9°C 19.0°F-7.2°C 78% 2.0 mph SSW3.2 kmh SSW 4.9 mph7.9 kmh 30.27 in1025.1 mb 0.00 in0.0 mm 0.00 in/hr0.0 mm/hr 0.00 in0.0 mm
10:06 AM 25.0°F-3.9°C 18.9°F-7.3°C 77% 2.0 mph SSW3.2 kmh SSW 2.9 mph4.7 kmh 30.27 in1025.1 mb 0.00 in0.0 mm 0.00 in/hr0.0 mm/hr 0.00 in0.0 mm
10:05 AM 25.0°F-3.9°C 18.9°F-7.3°C 77% 2.0 mph E3.2 kmh E 2.0 mph3.2 kmh 30.27 in1025.1 mb 0.00 in0.0 mm 0.00 in/hr0.0 mm/hr 0.00 in0.0 mm
10:04 AM 24.8°F-4.0°C 18.9°F-7.3°C 78% 2.0 mph ESE3.2 kmh ESE 4.0 mph6.4 kmh 30.27 in1025.1 mb 0.00 in0.0 mm 0.00 in/hr0.0 mm/hr 0.00 in0.0 mm
10:03 AM 24.6°F-4.1°C 18.7°F-7.4°C 78% 2.0 mph SE3.2 kmh SE 4.0 mph6.4 kmh 30.27 in1025.1 mb 0.00 in0.0 mm 0.00 in/hr0.0 mm/hr 0.00 in0.0 mm
10:02 AM 24.6°F-4.1°C 18.5°F-7.5°C 77% 2.0 mph S3.2 kmh S 4.0 mph6.4 kmh 30.27 in1025.1 mb 0.00 in0.0 mm 0.00 in/hr0.0 mm/hr 0.00 in0.0 mm
10:01 AM 24.6°F-4.1°C 18.1°F-7.7°C 76% 2.0 mph SSW3.2 kmh SSW 7.0 mph11.3 kmh 30.27 in1025.1 mb 0.00 in0.0 mm 0.00 in/hr0.0 mm/hr 0.00 in0.0 mm
10:00 AM 24.6°F-4.1°C 18.5°F-7.5°C 77% 2.0 mph SE3.2 kmh SE 7.0 mph11.3 kmh 30.27 in1025.1 mb 0.00 in0.0 mm 0.00 in/hr0.0 mm/hr 0.00 in0.0 mm
09:59 AM 24.6°F-4.1°C 18.5°F-7.5°C 77% 2.0 mph SE3.2 kmh SE 4.0 mph6.4 kmh 30.27 in1025.1 mb 0.00 in0.0 mm 0.00 in/hr0.0 mm/hr 0.00 in0.0 mm
09:58 AM 24.6°F-4.1°C 18.7°F-7.4°C 78% 2.0 mph ESE3.2 kmh ESE 4.0 mph6.4 kmh 30.27 in1025.1 mb 0.00 in0.0 mm 0.00 in/hr0.0 mm/hr 0.00 in0.0 mm
09:57 AM 24.6°F-4.1°C 18.7°F-7.4°C 78% 2.0 mph SE3.2 kmh SE 2.9 mph4.7 kmh 30.27 in1025.1 mb 0.00 in0.0 mm 0.00 in/hr0.0 mm/hr 0.00 in0.0 mm
09:56 AM 24.6°F-4.1°C 18.7°F-7.4°C 78% 2.9 mph S4.7 kmh S 2.9 mph4.7 kmh 30.27 in1025.1 mb 0.00 in0.0 mm 0.00 in/hr0.0 mm/hr 0.00 in0.0 mm
09:55 AM 24.6°F-4.1°C 18.7°F-7.4°C 78% 2.9 mph SE4.7 kmh SE 2.0 mph3.2 kmh 30.27 in1025.1 mb 0.00 in0.0 mm 0.00 in/hr0.0 mm/hr 0.00 in0.0 mm
09:54 AM 24.6°F-4.1°C 18.5°F-7.5°C 77% 2.9 mph ESE4.7 kmh ESE 4.9 mph7.9 kmh 30.27 in1025.1 mb 0.00 in0.0 mm 0.00 in/hr0.0 mm/hr 0.00 in0.0 mm
09:53 AM 24.6°F-4.1°C 18.5°F-7.5°C 77% 2.9 mph SE4.7 kmh SE 4.9 mph7.9 kmh 30.27 in1025.1 mb 0.00 in0.0 mm 0.00 in/hr0.0 mm/hr 0.00 in0.0 mm
09:52 AM 24.6°F-4.1°C 18.7°F-7.4°C 78% 2.9 mph SE4.7 kmh SE 6.0 mph9.7 kmh 30.27 in1025.1 mb 0.00 in0.0 mm 0.00 in/hr0.0 mm/hr 0.00 in0.0 mm
09:51 AM 24.6°F-4.1°C 18.5°F-7.5°C 77% 2.0 mph S3.2 kmh S 2.9 mph4.7 kmh 30.27 in1025.1 mb 0.00 in0.0 mm 0.00 in/hr0.0 mm/hr 0.00 in0.0 mm
09:50 AM 24.4°F-4.2°C 18.3°F-7.6°C 77% 2.0 mph SSW3.2 kmh SSW 4.0 mph6.4 kmh 30.27 in1025.1 mb 0.00 in0.0 mm 0.00 in/hr0.0 mm/hr 0.00 in0.0 mm
09:49 AM 24.4°F-4.2°C 18.3°F-7.6°C 77% 2.0 mph S3.2 kmh S 4.0 mph6.4 kmh 30.27 in1025.1 mb 0.00 in0.0 mm 0.00 in/hr0.0 mm/hr 0.00 in0.0 mm
09:48 AM 24.4°F-4.2°C 18.3°F-7.6°C 77% 2.0 mph S3.2 kmh S 5.0 mph8.0 kmh 30.27 in1025.1 mb 0.00 in0.0 mm 0.00 in/hr0.0 mm/hr 0.00 in0.0 mm
09:47 AM 24.4°F-4.2°C 18.5°F-7.5°C 78% 2.0 mph S3.2 kmh S 4.0 mph6.4 kmh 30.27 in1025.1 mb 0.00 in0.0 mm 0.00 in/hr0.0 mm/hr 0.00 in0.0 mm
09:46 AM 24.4°F-4.2°C 18.5°F-7.5°C 78% 2.0 mph S3.2 kmh S 4.0 mph6.4 kmh 30.27 in1025.1 mb 0.00 in0.0 mm 0.00 in/hr0.0 mm/hr 0.00 in0.0 mm
09:45 AM 24.3°F-4.3°C 18.7°F-7.4°C 79% 2.0 mph S3.2 kmh S 4.0 mph6.4 kmh 30.27 in1025.1 mb 0.00 in0.0 mm 0.00 in/hr0.0 mm/hr 0.00 in0.0 mm
09:44 AM 24.3°F-4.3°C 18.3°F-7.6°C 78% 2.0 mph SE3.2 kmh SE 4.0 mph6.4 kmh 30.26 in1024.7 mb 0.00 in0.0 mm 0.00 in/hr0.0 mm/hr 0.00 in0.0 mm
09:43 AM 24.3°F-4.3°C 18.3°F-7.6°C 78% 2.0 mph SSE3.2 kmh SSE 4.0 mph6.4 kmh 30.26 in1024.7 mb 0.00 in0.0 mm 0.00 in/hr0.0 mm/hr 0.00 in0.0 mm
09:42 AM 24.3°F-4.3°C 18.3°F-7.6°C 78% 2.0 mph SSE3.2 kmh SSE 2.0 mph3.2 kmh 30.26 in1024.7 mb 0.00 in0.0 mm 0.00 in/hr0.0 mm/hr 0.00 in0.0 mm
09:41 AM 24.3°F-4.3°C 18.3°F-7.6°C 78% 2.0 mph SE3.2 kmh SE 4.0 mph6.4 kmh 30.26 in1024.7 mb 0.00 in0.0 mm 0.00 in/hr0.0 mm/hr 0.00 in0.0 mm
09:40 AM 24.3°F-4.3°C 18.7°F-7.4°C 79% 2.0 mph SE3.2 kmh SE 2.9 mph4.7 kmh 30.26 in1024.7 mb 0.00 in0.0 mm 0.00 in/hr0.0 mm/hr 0.00 in0.0 mm
09:39 AM 24.1°F-4.4°C 18.5°F-7.5°C 79% 2.0 mph S3.2 kmh S 2.0 mph3.2 kmh 30.26 in1024.7 mb 0.00 in0.0 mm 0.00 in/hr0.0 mm/hr 0.00 in0.0 mm
09:38 AM 24.1°F-4.4°C 18.5°F-7.5°C 79% 2.0 mph SE3.2 kmh SE 4.9 mph7.9 kmh 30.26 in1024.7 mb 0.00 in0.0 mm 0.00 in/hr0.0 mm/hr 0.00 in0.0 mm
09:37 AM 24.1°F-4.4°C 18.1°F-7.7°C 78% 2.0 mph E3.2 kmh E 4.9 mph7.9 kmh 30.26 in1024.7 mb 0.00 in0.0 mm 0.00 in/hr0.0 mm/hr 0.00 in0.0 mm
09:36 AM 24.1°F-4.4°C 18.5°F-7.5°C 79% 2.0 mph E3.2 kmh E 6.0 mph9.7 kmh 30.26 in1024.7 mb 0.00 in0.0 mm 0.00 in/hr0.0 mm/hr 0.00 in0.0 mm
09:35 AM 24.1°F-4.4°C 18.5°F-7.5°C 79% 2.0 mph SE3.2 kmh SE 6.0 mph9.7 kmh 30.26 in1024.7 mb 0.00 in0.0 mm 0.00 in/hr0.0 mm/hr 0.00 in0.0 mm
09:34 AM 23.9°F-4.5°C 18.3°F-7.6°C 79% 2.0 mph SE3.2 kmh SE 2.0 mph3.2 kmh 30.26 in1024.7 mb 0.00 in0.0 mm 0.00 in/hr0.0 mm/hr 0.00 in0.0 mm
09:33 AM 23.9°F-4.5°C 18.3°F-7.6°C 79% 2.0 mph S3.2 kmh S 6.0 mph9.7 kmh 30.26 in1024.7 mb 0.00 in0.0 mm 0.00 in/hr0.0 mm/hr 0.00 in0.0 mm
09:32 AM 23.7°F-4.6°C 18.5°F-7.5°C 80% 2.0 mph SE3.2 kmh SE 6.0 mph9.7 kmh 30.26 in1024.7 mb 0.00 in0.0 mm 0.00 in/hr0.0 mm/hr 0.00 in0.0 mm
09:31 AM 23.7°F-4.6°C 18.1°F-7.7°C 79% 2.9 mph ESE4.7 kmh ESE 4.0 mph6.4 kmh 30.26 in1024.7 mb 0.00 in0.0 mm 0.00 in/hr0.0 mm/hr 0.00 in0.0 mm
09:30 AM 23.7°F-4.6°C 18.1°F-7.7°C 79% 2.9 mph SSE4.7 kmh SSE 4.9 mph7.9 kmh 30.26 in1024.7 mb 0.00 in0.0 mm 0.00 in/hr0.0 mm/hr 0.00 in0.0 mm
09:29 AM 23.7°F-4.6°C 18.5°F-7.5°C 80% 2.9 mph SE4.7 kmh SE 4.9 mph7.9 kmh 30.27 in1025.1 mb 0.00 in0.0 mm 0.00 in/hr0.0 mm/hr 0.00 in0.0 mm
09:28 AM 23.5°F-4.7°C 18.0°F-7.8°C 79% 2.9 mph S4.7 kmh S 2.9 mph4.7 kmh 30.27 in1025.1 mb 0.00 in0.0 mm 0.00 in/hr0.0 mm/hr 0.00 in0.0 mm
09:27 AM 23.5°F-4.7°C 17.8°F-7.9°C 78% 2.9 mph SSW4.7 kmh SSW 2.9 mph4.7 kmh 30.27 in1025.1 mb 0.00 in0.0 mm 0.00 in/hr0.0 mm/hr 0.00 in0.0 mm
09:26 AM 23.5°F-4.7°C 18.0°F-7.8°C 79% 2.9 mph S4.7 kmh S 4.0 mph6.4 kmh 30.27 in1025.1 mb 0.00 in0.0 mm 0.00 in/hr0.0 mm/hr 0.00 in0.0 mm
09:25 AM 23.5°F-4.7°C 18.0°F-7.8°C 79% 2.9 mph S4.7 kmh S 4.0 mph6.4 kmh 30.27 in1025.1 mb 0.00 in0.0 mm 0.00 in/hr0.0 mm/hr 0.00 in0.0 mm
09:24 AM 23.5°F-4.7°C 17.8°F-7.9°C 78% 2.9 mph S4.7 kmh S 4.0 mph6.4 kmh 30.27 in1025.1 mb 0.00 in0.0 mm 0.00 in/hr0.0 mm/hr 0.00 in0.0 mm
09:23 AM 23.5°F-4.7°C 17.8°F-7.9°C 78% 2.0 mph S3.2 kmh S 4.0 mph6.4 kmh 30.27 in1025.1 mb 0.00 in0.0 mm 0.00 in/hr0.0 mm/hr 0.00 in0.0 mm
09:22 AM 23.5°F-4.7°C 17.8°F-7.9°C 78% 2.0 mph S3.2 kmh S 4.9 mph7.9 kmh 30.27 in1025.1 mb 0.00 in0.0 mm 0.00 in/hr0.0 mm/hr 0.00 in0.0 mm
09:21 AM 23.5°F-4.7°C 17.8°F-7.9°C 78% 2.0 mph SSE3.2 kmh SSE 4.9 mph7.9 kmh 30.27 in1025.1 mb 0.00 in0.0 mm 0.00 in/hr0.0 mm/hr 0.00 in0.0 mm
09:20 AM 23.5°F-4.7°C 18.0°F-7.8°C 79% 2.0 mph SSE3.2 kmh SSE 4.9 mph7.9 kmh 30.27 in1025.1 mb 0.00 in0.0 mm 0.00 in/hr0.0 mm/hr 0.00 in0.0 mm
09:19 AM 23.5°F-4.7°C 17.8°F-7.9°C 78% 0.9 mph S1.4 kmh S 7.0 mph11.3 kmh 30.27 in1025.1 mb 0.00 in0.0 mm 0.00 in/hr0.0 mm/hr 0.00 in0.0 mm
09:18 AM 23.4°F-4.8°C 17.8°F-7.9°C 79% 0.9 mph S1.4 kmh S 4.0 mph6.4 kmh 30.27 in1025.1 mb 0.00 in0.0 mm 0.00 in/hr0.0 mm/hr 0.00 in0.0 mm
09:17 AM 23.4°F-4.8°C 17.8°F-7.9°C 79% 0.9 mph S1.4 kmh S 4.0 mph6.4 kmh 30.27 in1025.1 mb 0.00 in0.0 mm 0.00 in/hr0.0 mm/hr 0.00 in0.0 mm
09:16 AM 23.4°F-4.8°C 17.6°F-8.0°C 78% 0.9 mph SE1.4 kmh SE 0.9 mph1.4 kmh 30.27 in1025.1 mb 0.00 in0.0 mm 0.00 in/hr0.0 mm/hr 0.00 in0.0 mm
09:15 AM 23.4°F-4.8°C 17.6°F-8.0°C 78% 0.9 mph SE1.4 kmh SE 2.9 mph4.7 kmh 30.27 in1025.1 mb 0.00 in0.0 mm 0.00 in/hr0.0 mm/hr 0.00 in0.0 mm
09:14 AM 23.4°F-4.8°C 17.2°F-8.2°C 77% 0.9 mph ESE1.4 kmh ESE 2.9 mph4.7 kmh 30.26 in1024.7 mb 0.00 in0.0 mm 0.00 in/hr0.0 mm/hr 0.00 in0.0 mm
09:13 AM 23.5°F-4.7°C 17.8°F-7.9°C 78% 0.9 mph ESE1.4 kmh ESE 2.0 mph3.2 kmh 30.26 in1024.7 mb 0.00 in0.0 mm 0.00 in/hr0.0 mm/hr 0.00 in0.0 mm
09:12 AM 23.5°F-4.7°C 17.8°F-7.9°C 78% 0.9 mph ESE1.4 kmh ESE 2.0 mph3.2 kmh 30.26 in1024.7 mb 0.00 in0.0 mm 0.00 in/hr0.0 mm/hr 0.00 in0.0 mm
09:11 AM 23.5°F-4.7°C 17.8°F-7.9°C 78% 2.0 mph SSE3.2 kmh SSE 2.0 mph3.2 kmh 30.26 in1024.7 mb 0.00 in0.0 mm 0.00 in/hr0.0 mm/hr 0.00 in0.0 mm
09:10 AM 23.5°F-4.7°C 17.4°F-8.1°C 77% 2.0 mph SE3.2 kmh SE 2.0 mph3.2 kmh 30.26 in1024.7 mb 0.00 in0.0 mm 0.00 in/hr0.0 mm/hr 0.00 in0.0 mm
09:09 AM 23.5°F-4.7°C 17.8°F-7.9°C 78% 2.0 mph SE3.2 kmh SE 0.9 mph1.4 kmh 30.26 in1024.7 mb 0.00 in0.0 mm 0.00 in/hr0.0 mm/hr 0.00 in0.0 mm
09:08 AM 23.5°F-4.7°C 17.4°F-8.1°C 77% 2.0 mph S3.2 kmh S 2.9 mph4.7 kmh 30.26 in1024.7 mb 0.00 in0.0 mm 0.00 in/hr0.0 mm/hr 0.00 in0.0 mm
09:07 AM 23.7°F-4.6°C 18.0°F-7.8°C 78% 2.0 mph SSE3.2 kmh SSE 2.9 mph4.7 kmh 30.26 in1024.7 mb 0.00 in0.0 mm 0.00 in/hr0.0 mm/hr 0.00 in0.0 mm
09:06 AM 23.7°F-4.6°C 18.1°F-7.7°C 79% 2.0 mph SE3.2 kmh SE 2.9 mph4.7 kmh 30.26 in1024.7 mb 0.00 in0.0 mm 0.00 in/hr0.0 mm/hr 0.00 in0.0 mm
09:05 AM 23.7°F-4.6°C 18.1°F-7.7°C 79% 2.0 mph SE3.2 kmh SE 2.0 mph3.2 kmh 30.26 in1024.7 mb 0.00 in0.0 mm 0.00 in/hr0.0 mm/hr 0.00 in0.0 mm
09:04 AM 23.5°F-4.7°C 17.8°F-7.9°C 78% 2.0 mph ESE3.2 kmh ESE 2.9 mph4.7 kmh 30.26 in1024.7 mb 0.00 in0.0 mm 0.00 in/hr0.0 mm/hr 0.00 in0.0 mm
09:03 AM 23.5°F-4.7°C 17.8°F-7.9°C 78% 2.0 mph S3.2 kmh S 4.9 mph7.9 kmh 30.26 in1024.7 mb 0.00 in0.0 mm 0.00 in/hr0.0 mm/hr 0.00 in0.0 mm
09:02 AM 23.5°F-4.7°C 17.8°F-7.9°C 78% 2.0 mph SSW3.2 kmh SSW 4.9 mph7.9 kmh 30.26 in1024.7 mb 0.00 in0.0 mm 0.00 in/hr0.0 mm/hr 0.00 in0.0 mm
09:01 AM 23.5°F-4.7°C 17.8°F-7.9°C 78% 2.0 mph S3.2 kmh S 4.9 mph7.9 kmh 30.26 in1024.7 mb 0.00 in0.0 mm 0.00 in/hr0.0 mm/hr 0.00 in0.0 mm
09:00 AM 23.5°F-4.7°C 18.0°F-7.8°C 79% 2.0 mph S3.2 kmh S 5.0 mph8.0 kmh 30.26 in1024.7 mb 0.00 in0.0 mm 0.00 in/hr0.0 mm/hr 0.00 in0.0 mm
08:59 AM 23.5°F-4.7°C 17.8°F-7.9°C 78% 2.0 mph S3.2 kmh S 2.9 mph4.7 kmh 30.24 in1024.0 mb 0.00 in0.0 mm 0.00 in/hr0.0 mm/hr 0.00 in0.0 mm
08:58 AM 23.5°F-4.7°C 18.0°F-7.8°C 79% 2.0 mph SSE3.2 kmh SSE 4.0 mph6.4 kmh 30.24 in1024.0 mb 0.00 in0.0 mm 0.00 in/hr0.0 mm/hr 0.00 in0.0 mm
08:57 AM 23.4°F-4.8°C 17.8°F-7.9°C 79% 0.9 mph S1.4 kmh S 2.0 mph3.2 kmh 30.24 in1024.0 mb 0.00 in0.0 mm 0.00 in/hr0.0 mm/hr 0.00 in0.0 mm
08:56 AM 23.4°F-4.8°C 18.1°F-7.7°C 80% 2.0 mph S3.2 kmh S 2.0 mph3.2 kmh 30.24 in1024.0 mb 0.00 in0.0 mm 0.00 in/hr0.0 mm/hr 0.00 in0.0 mm
08:55 AM 23.4°F-4.8°C 18.1°F-7.7°C 80% 2.0 mph SE3.2 kmh SE 2.0 mph3.2 kmh 30.24 in1024.0 mb 0.00 in0.0 mm 0.00 in/hr0.0 mm/hr 0.00 in0.0 mm
08:54 AM 23.2°F-4.9°C 18.0°F-7.8°C 80% 0.9 mph S1.4 kmh S 2.0 mph3.2 kmh 30.24 in1024.0 mb 0.00 in0.0 mm 0.00 in/hr0.0 mm/hr 0.00 in0.0 mm
08:53 AM 23.2°F-4.9°C 18.1°F-7.7°C 81% 0.9 mph SSE1.4 kmh SSE 2.9 mph4.7 kmh 30.24 in1024.0 mb 0.00 in0.0 mm 0.00 in/hr0.0 mm/hr 0.00 in0.0 mm
08:52 AM 23.0°F-5.0°C 17.8°F-7.9°C 80% 0.9 mph SSW1.4 kmh SSW 2.9 mph4.7 kmh 30.24 in1024.0 mb 0.00 in0.0 mm 0.00 in/hr0.0 mm/hr 0.00 in0.0 mm
08:51 AM 22.8°F-5.1°C 17.6°F-8.0°C 80% 0.9 mph SSW1.4 kmh SSW 2.0 mph3.2 kmh 30.24 in1024.0 mb 0.00 in0.0 mm 0.00 in/hr0.0 mm/hr 0.00 in0.0 mm
08:50 AM 22.8°F-5.1°C 17.2°F-8.2°C 79% 0.9 mph SE1.4 kmh SE 2.9 mph4.7 kmh 30.24 in1024.0 mb 0.00 in0.0 mm 0.00 in/hr0.0 mm/hr 0.00 in0.0 mm
08:49 AM 22.8°F-5.1°C 17.6°F-8.0°C 80% 0.9 mph ESE1.4 kmh ESE 2.9 mph4.7 kmh 30.24 in1024.0 mb 0.00 in0.0 mm 0.00 in/hr0.0 mm/hr 0.00 in0.0 mm
08:48 AM 22.8°F-5.1°C 17.6°F-8.0°C 80% 0.9 mph E1.4 kmh E 2.0 mph3.2 kmh 30.24 in1024.0 mb 0.00 in0.0 mm 0.00 in/hr0.0 mm/hr 0.00 in0.0 mm
08:47 AM 22.8°F-5.1°C 18.0°F-7.8°C 81% 0.9 mph SE1.4 kmh SE 4.9 mph7.9 kmh 30.24 in1024.0 mb 0.00 in0.0 mm 0.00 in/hr0.0 mm/hr 0.00 in0.0 mm
08:46 AM 22.6°F-5.2°C 17.8°F-7.9°C 81% 0.9 mph NE1.4 kmh NE 4.0 mph6.4 kmh 30.24 in1024.0 mb 0.00 in0.0 mm 0.00 in/hr0.0 mm/hr 0.00 in0.0 mm
08:45 AM 22.6°F-5.2°C 17.8°F-7.9°C 81% 0.9 mph SE1.4 kmh SE 0.9 mph1.4 kmh 30.24 in1024.0 mb 0.00 in0.0 mm 0.00 in/hr0.0 mm/hr 0.00 in0.0 mm
08:44 AM 22.6°F-5.2°C 17.8°F-7.9°C 81% 0.9 mph SE1.4 kmh SE 2.9 mph4.7 kmh 30.24 in1024.0 mb 0.00 in0.0 mm 0.00 in/hr0.0 mm/hr 0.00 in0.0 mm
08:43 AM 22.6°F-5.2°C 17.8°F-7.9°C 81% 0.9 mph E1.4 kmh E 2.0 mph3.2 kmh 30.24 in1024.0 mb 0.00 in0.0 mm 0.00 in/hr0.0 mm/hr 0.00 in0.0 mm
08:42 AM 22.5°F-5.3°C 17.6°F-8.0°C 81% 0.9 mph SE1.4 kmh SE 3.0 mph4.8 kmh 30.24 in1024.0 mb 0.00 in0.0 mm 0.00 in/hr0.0 mm/hr 0.00 in0.0 mm
08:41 AM 22.5°F-5.3°C 17.8°F-7.9°C 82% 0.9 mph SE1.4 kmh SE 3.0 mph4.8 kmh 30.24 in1024.0 mb 0.00 in0.0 mm 0.00 in/hr0.0 mm/hr 0.00 in0.0 mm
08:40 AM 22.5°F-5.3°C 17.8°F-7.9°C 82% 0.9 mph SSE1.4 kmh SSE 0.9 mph1.4 kmh 30.24 in1024.0 mb 0.00 in0.0 mm 0.00 in/hr0.0 mm/hr 0.00 in0.0 mm
08:39 AM 22.3°F-5.4°C 17.6°F-8.0°C 82% 0.9 mph SE1.4 kmh SE 0.9 mph1.4 kmh 30.24 in1024.0 mb 0.00 in0.0 mm 0.00 in/hr0.0 mm/hr 0.00 in0.0 mm
08:38 AM 22.3°F-5.4°C 17.6°F-8.0°C 82% 0.9 mph SE1.4 kmh SE 0.9 mph1.4 kmh 30.24 in1024.0 mb 0.00 in0.0 mm 0.00 in/hr0.0 mm/hr 0.00 in0.0 mm
08:37 AM 22.1°F-5.5°C 17.2°F-8.2°C 81% 0.9 mph ENE1.4 kmh ENE 0.9 mph1.4 kmh 30.24 in1024.0 mb 0.00 in0.0 mm 0.00 in/hr0.0 mm/hr 0.00 in0.0 mm
08:36 AM 22.1°F-5.5°C 17.2°F-8.2°C 81% 0.9 mph SE1.4 kmh SE 2.0 mph3.2 kmh 30.24 in1024.0 mb 0.00 in0.0 mm 0.00 in/hr0.0 mm/hr 0.00 in0.0 mm
08:35 AM 22.1°F-5.5°C 17.2°F-8.2°C 81% 0.9 mph SE1.4 kmh SE 2.0 mph3.2 kmh 30.24 in1024.0 mb 0.00 in0.0 mm 0.00 in/hr0.0 mm/hr 0.00 in0.0 mm
08:34 AM 22.1°F-5.5°C 17.2°F-8.2°C 81% 0.9 mph ESE1.4 kmh ESE 2.0 mph3.2 kmh 30.24 in1024.0 mb 0.00 in0.0 mm 0.00 in/hr0.0 mm/hr 0.00 in0.0 mm
08:33 AM 21.9°F-5.6°C 17.1°F-8.3°C 81% 0.9 mph NE1.4 kmh NE 0.9 mph1.4 kmh 30.24 in1024.0 mb 0.00 in0.0 mm 0.00 in/hr0.0 mm/hr 0.00 in0.0 mm
08:32 AM 21.9°F-5.6°C 17.1°F-8.3°C 81% 0.9 mph ESE1.4 kmh ESE 2.0 mph3.2 kmh 30.24 in1024.0 mb 0.00 in0.0 mm 0.00 in/hr0.0 mm/hr 0.00 in0.0 mm
08:31 AM 21.9°F-5.6°C 17.1°F-8.3°C 81% 0.9 mph ESE1.4 kmh ESE 2.0 mph3.2 kmh 30.24 in1024.0 mb 0.00 in0.0 mm 0.00 in/hr0.0 mm/hr 0.00 in0.0 mm
08:30 AM 21.9°F-5.6°C 17.1°F-8.3°C 81% 0.9 mph ESE1.4 kmh ESE 2.0 mph3.2 kmh 30.24 in1024.0 mb 0.00 in0.0 mm 0.00 in/hr0.0 mm/hr 0.00 in0.0 mm
08:29 AM 21.9°F-5.6°C 17.1°F-8.3°C 81% 0.9 mph NE1.4 kmh NE 2.0 mph3.2 kmh 30.24 in1024.0 mb 0.00 in0.0 mm 0.00 in/hr0.0 mm/hr 0.00 in0.0 mm
08:28 AM 21.7°F-5.7°C 16.9°F-8.4°C 81% 0.9 mph SE1.4 kmh SE 2.0 mph3.2 kmh 30.24 in1024.0 mb 0.00 in0.0 mm 0.00 in/hr0.0 mm/hr 0.00 in0.0 mm
08:27 AM 21.7°F-5.7°C 16.9°F-8.4°C 81% 0.9 mph SE1.4 kmh SE 2.0 mph3.2 kmh 30.24 in1024.0 mb 0.00 in0.0 mm 0.00 in/hr0.0 mm/hr 0.00 in0.0 mm
08:26 AM 21.7°F-5.7°C 16.5°F-8.6°C 80% 0.9 mph SSE1.4 kmh SSE 2.0 mph3.2 kmh 30.24 in1024.0 mb 0.00 in0.0 mm 0.00 in/hr0.0 mm/hr 0.00 in0.0 mm
08:25 AM 21.7°F-5.7°C 16.5°F-8.6°C 80% 0.9 mph ENE1.4 kmh ENE 2.9 mph4.7 kmh 30.24 in1024.0 mb 0.00 in0.0 mm 0.00 in/hr0.0 mm/hr 0.00 in0.0 mm
08:24 AM 21.7°F-5.7°C 16.5°F-8.6°C 80% 0.9 mph ENE1.4 kmh ENE 2.9 mph4.7 kmh 30.24 in1024.0 mb 0.00 in0.0 mm 0.00 in/hr0.0 mm/hr 0.00 in0.0 mm
08:23 AM 21.7°F-5.7°C 16.9°F-8.4°C 81% 0.9 mph E1.4 kmh E 4.0 mph6.4 kmh 30.24 in1024.0 mb 0.00 in0.0 mm 0.00 in/hr0.0 mm/hr 0.00 in0.0 mm
08:22 AM 21.7°F-5.7°C 17.1°F-8.3°C 82% Calm Calm 2.9 mph4.7 kmh 30.24 in1024.0 mb 0.00 in0.0 mm 0.00 in/hr0.0 mm/hr 0.00 in0.0 mm
08:21 AM 21.7°F-5.7°C 17.1°F-8.3°C 82% Calm Calm 0.9 mph1.4 kmh 30.24 in1024.0 mb 0.00 in0.0 mm 0.00 in/hr0.0 mm/hr 0.00 in0.0 mm
08:20 AM 21.6°F-5.8°C 16.7°F-8.5°C 81% Calm Calm 2.0 mph3.2 kmh 30.24 in1024.0 mb 0.00 in0.0 mm 0.00 in/hr0.0 mm/hr 0.00 in0.0 mm
08:19 AM 21.6°F-5.8°C 16.7°F-8.5°C 81% 0.9 mph SE1.4 kmh SE 0.9 mph1.4 kmh 30.24 in1024.0 mb 0.00 in0.0 mm 0.00 in/hr0.0 mm/hr 0.00 in0.0 mm
08:18 AM 21.6°F-5.8°C 16.7°F-8.5°C 81% 0.9 mph SE1.4 kmh SE 2.9 mph4.7 kmh 30.24 in1024.0 mb 0.00 in0.0 mm 0.00 in/hr0.0 mm/hr 0.00 in0.0 mm
08:17 AM 21.6°F-5.8°C 16.7°F-8.5°C 81% 0.9 mph ENE1.4 kmh ENE 2.9 mph4.7 kmh 30.24 in1024.0 mb 0.00 in0.0 mm 0.00 in/hr0.0 mm/hr 0.00 in0.0 mm
08:16 AM 21.6°F-5.8°C 16.7°F-8.5°C 81% 0.9 mph ENE1.4 kmh ENE 2.0 mph3.2 kmh 30.24 in1024.0 mb 0.00 in0.0 mm 0.00 in/hr0.0 mm/hr 0.00 in0.0 mm
08:15 AM 21.6°F-5.8°C 16.7°F-8.5°C 81% 0.9 mph ENE1.4 kmh ENE 2.0 mph3.2 kmh 30.24 in1024.0 mb 0.00 in0.0 mm 0.00 in/hr0.0 mm/hr 0.00 in0.0 mm
08:14 AM 21.6°F-5.8°C 16.7°F-8.5°C 81% 0.9 mph ESE1.4 kmh ESE 0.9 mph1.4 kmh 30.24 in1024.0 mb 0.00 in0.0 mm 0.00 in/hr0.0 mm/hr 0.00 in0.0 mm
08:13 AM 21.4°F-5.9°C 16.5°F-8.6°C 81% 0.9 mph ESE1.4 kmh ESE 2.0 mph3.2 kmh 30.24 in1024.0 mb 0.00 in0.0 mm 0.00 in/hr0.0 mm/hr 0.00 in0.0 mm
08:12 AM 21.4°F-5.9°C 16.5°F-8.6°C 81% 0.9 mph SE1.4 kmh SE 0.9 mph1.4 kmh 30.24 in1024.0 mb 0.00 in0.0 mm 0.00 in/hr0.0 mm/hr 0.00 in0.0 mm
08:11 AM 21.4°F-5.9°C 16.5°F-8.6°C 81% 0.9 mph SE1.4 kmh SE 2.0 mph3.2 kmh 30.24 in1024.0 mb 0.00 in0.0 mm 0.00 in/hr0.0 mm/hr 0.00 in0.0 mm
08:10 AM 21.4°F-5.9°C 16.5°F-8.6°C 81% 0.9 mph ENE1.4 kmh ENE 2.9 mph4.7 kmh 30.24 in1024.0 mb 0.00 in0.0 mm 0.00 in/hr0.0 mm/hr 0.00 in0.0 mm
08:09 AM 21.4°F-5.9°C 16.5°F-8.6°C 81% Calm Calm 2.9 mph4.7 kmh 30.24 in1024.0 mb 0.00 in0.0 mm 0.00 in/hr0.0 mm/hr 0.00 in0.0 mm
08:08 AM 21.4°F-5.9°C 16.5°F-8.6°C 81% Calm Calm 3.0 mph4.8 kmh 30.24 in1024.0 mb 0.00 in0.0 mm 0.00 in/hr0.0 mm/hr 0.00 in0.0 mm
08:07 AM 21.4°F-5.9°C 16.5°F-8.6°C 81% Calm Calm 2.0 mph3.2 kmh 30.24 in1024.0 mb 0.00 in0.0 mm 0.00 in/hr0.0 mm/hr 0.00 in0.0 mm
08:06 AM 21.4°F-5.9°C 16.5°F-8.6°C 81% Calm Calm 2.0 mph3.2 kmh 30.24 in1024.0 mb 0.00 in0.0 mm 0.00 in/hr0.0 mm/hr 0.00 in0.0 mm
08:05 AM 21.4°F-5.9°C 16.5°F-8.6°C 81% Calm Calm 2.0 mph3.2 kmh 30.24 in1024.0 mb 0.00 in0.0 mm 0.00 in/hr0.0 mm/hr 0.00 in0.0 mm
08:04 AM 21.2°F-6.0°C 16.3°F-8.7°C 81% 0.9 mph E1.4 kmh E 0.9 mph1.4 kmh 30.24 in1024.0 mb 0.00 in0.0 mm 0.00 in/hr0.0 mm/hr 0.00 in0.0 mm
08:03 AM 21.2°F-6.0°C 16.3°F-8.7°C 81% 0.9 mph SE1.4 kmh SE -- 30.24 in1024.0 mb 0.00 in0.0 mm 0.00 in/hr0.0 mm/hr 0.00 in0.0 mm
08:02 AM 21.0°F-6.1°C 16.2°F-8.8°C 81% 0.9 mph SSE1.4 kmh SSE -- 30.24 in1024.0 mb 0.00 in0.0 mm 0.00 in/hr0.0 mm/hr 0.00 in0.0 mm
08:01 AM 21.0°F-6.1°C 16.2°F-8.8°C 81% 0.9 mph SSE1.4 kmh SSE -- 30.24 in1024.0 mb 0.00 in0.0 mm 0.00 in/hr0.0 mm/hr 0.00 in0.0 mm
08:00 AM 21.0°F-6.1°C 16.2°F-8.8°C 81% 0.9 mph SSE1.4 kmh SSE 0.9 mph1.4 kmh 30.24 in1024.0 mb 0.00 in0.0 mm 0.00 in/hr0.0 mm/hr 0.00 in0.0 mm
07:59 AM 21.0°F-6.1°C 16.2°F-8.8°C 81% 0.9 mph ENE1.4 kmh ENE 0.9 mph1.4 kmh 30.22 in1023.4 mb 0.00 in0.0 mm 0.00 in/hr0.0 mm/hr 0.00 in0.0 mm
07:58 AM 20.8°F-6.2°C 16.0°F-8.9°C 81% 0.9 mph ENE1.4 kmh ENE 0.9 mph1.4 kmh 30.22 in1023.4 mb 0.00 in0.0 mm 0.00 in/hr0.0 mm/hr 0.00 in0.0 mm
07:57 AM 20.8°F-6.2°C 15.6°F-9.1°C 80% 0.9 mph E1.4 kmh E 5.0 mph8.0 kmh 30.22 in1023.4 mb 0.00 in0.0 mm 0.00 in/hr0.0 mm/hr 0.00 in0.0 mm
07:56 AM 20.8°F-6.2°C 16.0°F-8.9°C 81% 0.9 mph E1.4 kmh E 5.0 mph8.0 kmh 30.22 in1023.4 mb 0.00 in0.0 mm 0.00 in/hr0.0 mm/hr 0.00 in0.0 mm
07:55 AM 20.8°F-6.2°C 16.0°F-8.9°C 81% 0.9 mph E1.4 kmh E 2.0 mph3.2 kmh 30.22 in1023.4 mb 0.00 in0.0 mm 0.00 in/hr0.0 mm/hr 0.00 in0.0 mm
07:54 AM 20.8°F-6.2°C 16.0°F-8.9°C 81% 0.9 mph ESE1.4 kmh ESE 2.0 mph3.2 kmh 30.22 in1023.4 mb 0.00 in0.0 mm 0.00 in/hr0.0 mm/hr 0.00 in0.0 mm
07:53 AM 20.8°F-6.2°C 16.0°F-8.9°C 81% 0.9 mph ENE1.4 kmh ENE 0.9 mph1.4 kmh 30.22 in1023.4 mb 0.00 in0.0 mm 0.00 in/hr0.0 mm/hr 0.00 in0.0 mm
07:52 AM 20.8°F-6.2°C 16.0°F-8.9°C 81% 0.9 mph ENE1.4 kmh ENE 0.9 mph1.4 kmh 30.22 in1023.4 mb 0.00 in0.0 mm 0.00 in/hr0.0 mm/hr 0.00 in0.0 mm
07:51 AM 20.8°F-6.2°C 15.6°F-9.1°C 80% 0.9 mph ESE1.4 kmh ESE 0.9 mph1.4 kmh 30.22 in1023.4 mb 0.00 in0.0 mm 0.00 in/hr0.0 mm/hr 0.00 in0.0 mm
07:50 AM 20.8°F-6.2°C 15.6°F-9.1°C 80% 0.9 mph E1.4 kmh E 0.9 mph1.4 kmh 30.22 in1023.4 mb 0.00 in0.0 mm 0.00 in/hr0.0 mm/hr 0.00 in0.0 mm
07:49 AM 20.8°F-6.2°C 15.6°F-9.1°C 80% 0.9 mph ESE1.4 kmh ESE 2.0 mph3.2 kmh 30.22 in1023.4 mb 0.00 in0.0 mm 0.00 in/hr0.0 mm/hr 0.00 in0.0 mm
07:48 AM 20.8°F-6.2°C 15.6°F-9.1°C 80% 0.9 mph ESE1.4 kmh ESE 2.0 mph3.2 kmh 30.22 in1023.4 mb 0.00 in0.0 mm 0.00 in/hr0.0 mm/hr 0.00 in0.0 mm
07:47 AM 20.8°F-6.2°C 15.6°F-9.1°C 80% 0.9 mph ESE1.4 kmh ESE 2.0 mph3.2 kmh 30.22 in1023.4 mb 0.00 in0.0 mm 0.00 in/hr0.0 mm/hr 0.00 in0.0 mm
07:46 AM 20.8°F-6.2°C 15.6°F-9.1°C 80% 0.9 mph ESE1.4 kmh ESE 2.9 mph4.7 kmh 30.22 in1023.4 mb 0.00 in0.0 mm 0.00 in/hr0.0 mm/hr 0.00 in0.0 mm
07:45 AM 20.8°F-6.2°C 16.0°F-8.9°C 81% 0.9 mph ESE1.4 kmh ESE 0.9 mph1.4 kmh 30.22 in1023.4 mb 0.00 in0.0 mm 0.00 in/hr0.0 mm/hr 0.00 in0.0 mm
07:44 AM 20.8°F-6.2°C 16.0°F-8.9°C 81% 0.9 mph SE1.4 kmh SE 0.9 mph1.4 kmh 30.22 in1023.4 mb 0.00 in0.0 mm 0.00 in/hr0.0 mm/hr 0.00 in0.0 mm
07:43 AM 20.8°F-6.2°C 16.0°F-8.9°C 81% 0.9 mph SE1.4 kmh SE 0.9 mph1.4 kmh 30.22 in1023.4 mb 0.00 in0.0 mm 0.00 in/hr0.0 mm/hr 0.00 in0.0 mm
07:42 AM 20.8°F-6.2°C 16.0°F-8.9°C 81% 0.9 mph SE1.4 kmh SE 2.9 mph4.7 kmh 30.22 in1023.4 mb 0.00 in0.0 mm 0.00 in/hr0.0 mm/hr 0.00 in0.0 mm
07:41 AM 20.8°F-6.2°C 16.0°F-8.9°C 81% 0.9 mph SE1.4 kmh SE 6.0 mph9.7 kmh 30.22 in1023.4 mb 0.00 in0.0 mm 0.00 in/hr0.0 mm/hr 0.00 in0.0 mm
07:40 AM 20.8°F-6.2°C 16.0°F-8.9°C 81% 0.9 mph SE1.4 kmh SE 4.9 mph7.9 kmh 30.22 in1023.4 mb 0.00 in0.0 mm 0.00 in/hr0.0 mm/hr 0.00 in0.0 mm
07:39 AM 20.7°F-6.3°C 15.4°F-9.2°C 80% 0.9 mph SSE1.4 kmh SSE -- 30.22 in1023.4 mb 0.00 in0.0 mm 0.00 in/hr0.0 mm/hr 0.00 in0.0 mm
07:38 AM 20.7°F-6.3°C 15.4°F-9.2°C 80% 0.9 mph SSE1.4 kmh SSE 2.0 mph3.2 kmh 30.22 in1023.4 mb 0.00 in0.0 mm 0.00 in/hr0.0 mm/hr 0.00 in0.0 mm
07:37 AM 20.7°F-6.3°C 15.4°F-9.2°C 80% 0.9 mph ENE1.4 kmh ENE 2.9 mph4.7 kmh 30.22 in1023.4 mb 0.00 in0.0 mm 0.00 in/hr0.0 mm/hr 0.00 in0.0 mm
07:36 AM 20.7°F-6.3°C 15.4°F-9.2°C 80% 0.9 mph E1.4 kmh E 2.9 mph4.7 kmh 30.22 in1023.4 mb 0.00 in0.0 mm 0.00 in/hr0.0 mm/hr 0.00 in0.0 mm
07:35 AM 20.7°F-6.3°C 15.4°F-9.2°C 80% 0.9 mph SE1.4 kmh SE 4.0 mph6.4 kmh 30.22 in1023.4 mb 0.00 in0.0 mm 0.00 in/hr0.0 mm/hr 0.00 in0.0 mm
07:34 AM 20.7°F-6.3°C 15.4°F-9.2°C 80% 0.9 mph ESE1.4 kmh ESE 4.0 mph6.4 kmh 30.22 in1023.4 mb 0.00 in0.0 mm 0.00 in/hr0.0 mm/hr 0.00 in0.0 mm
07:33 AM 20.7°F-6.3°C 15.4°F-9.2°C 80% 0.9 mph S1.4 kmh S 0.9 mph1.4 kmh 30.22 in1023.4 mb 0.00 in0.0 mm 0.00 in/hr0.0 mm/hr 0.00 in0.0 mm
07:32 AM 20.8°F-6.2°C 15.6°F-9.1°C 80% 0.9 mph SE1.4 kmh SE 5.0 mph8.0 kmh 30.22 in1023.4 mb 0.00 in0.0 mm 0.00 in/hr0.0 mm/hr 0.00 in0.0 mm
07:31 AM 20.8°F-6.2°C 15.6°F-9.1°C 80% Calm Calm 2.9 mph4.7 kmh 30.22 in1023.4 mb 0.00 in0.0 mm 0.00 in/hr0.0 mm/hr 0.00 in0.0 mm
07:30 AM 20.7°F-6.3°C 15.4°F-9.2°C 80% Calm Calm 0.9 mph1.4 kmh 30.22 in1023.4 mb 0.00 in0.0 mm 0.00 in/hr0.0 mm/hr 0.00 in0.0 mm
07:29 AM 20.8°F-6.2°C 15.6°F-9.1°C 80% Calm Calm 2.0 mph3.2 kmh 30.21 in1023.0 mb 0.00 in0.0 mm 0.00 in/hr0.0 mm/hr 0.00 in0.0 mm
07:28 AM 20.8°F-6.2°C 15.6°F-9.1°C 80% Calm Calm 2.0 mph3.2 kmh 30.21 in1023.0 mb 0.00 in0.0 mm 0.00 in/hr0.0 mm/hr 0.00 in0.0 mm
07:27 AM 20.7°F-6.3°C 15.4°F-9.2°C 80% Calm Calm 2.0 mph3.2 kmh 30.21 in1023.0 mb 0.00 in0.0 mm 0.00 in/hr0.0 mm/hr 0.00 in0.0 mm
07:26 AM 20.7°F-6.3°C 15.4°F-9.2°C 80% Calm Calm -- 30.21 in1023.0 mb 0.00 in0.0 mm 0.00 in/hr0.0 mm/hr 0.00 in0.0 mm
07:25 AM 20.7°F-6.3°C 15.4°F-9.2°C 80% Calm Calm 2.9 mph4.7 kmh 30.21 in1023.0 mb 0.00 in0.0 mm 0.00 in/hr0.0 mm/hr 0.00 in0.0 mm
07:24 AM 20.7°F-6.3°C 15.4°F-9.2°C 80% Calm Calm 2.9 mph4.7 kmh 30.21 in1023.0 mb 0.00 in0.0 mm 0.00 in/hr0.0 mm/hr 0.00 in0.0 mm
07:23 AM 20.7°F-6.3°C 15.4°F-9.2°C 80% Calm Calm 0.9 mph1.4 kmh 30.21 in1023.0 mb 0.00 in0.0 mm 0.00 in/hr0.0 mm/hr 0.00 in0.0 mm
07:22 AM 20.7°F-6.3°C 15.4°F-9.2°C 80% Calm Calm 0.9 mph1.4 kmh 30.21 in1023.0 mb 0.00 in0.0 mm 0.00 in/hr0.0 mm/hr 0.00 in0.0 mm
07:21 AM 20.7°F-6.3°C 15.4°F-9.2°C 80% Calm Calm 0.9 mph1.4 kmh 30.21 in1023.0 mb 0.00 in0.0 mm 0.00 in/hr0.0 mm/hr 0.00 in0.0 mm
07:20 AM 20.7°F-6.3°C 15.4°F-9.2°C 80% Calm Calm 0.9 mph1.4 kmh 30.21 in1023.0 mb 0.00 in0.0 mm 0.00 in/hr0.0 mm/hr 0.00 in0.0 mm
07:19 AM 20.7°F-6.3°C 15.4°F-9.2°C 80% Calm Calm 0.9 mph1.4 kmh 30.21 in1023.0 mb 0.00 in0.0 mm 0.00 in/hr0.0 mm/hr 0.00 in0.0 mm
07:18 AM 20.7°F-6.3°C 15.4°F-9.2°C 80% Calm Calm 0.9 mph1.4 kmh 30.21 in1023.0 mb 0.00 in0.0 mm 0.00 in/hr0.0 mm/hr 0.00 in0.0 mm
07:17 AM 20.7°F-6.3°C 15.4°F-9.2°C 80% Calm Calm 0.9 mph1.4 kmh 30.21 in1023.0 mb 0.00 in0.0 mm 0.00 in/hr0.0 mm/hr 0.00 in0.0 mm
07:16 AM 20.7°F-6.3°C 15.3°F-9.3°C 79% Calm Calm 0.9 mph1.4 kmh 30.21 in1023.0 mb 0.00 in0.0 mm 0.00 in/hr0.0 mm/hr 0.00 in0.0 mm
07:15 AM 20.7°F-6.3°C 15.3°F-9.3°C 79% Calm Calm 0.9 mph1.4 kmh 30.21 in1023.0 mb 0.00 in0.0 mm 0.00 in/hr0.0 mm/hr 0.00 in0.0 mm
07:14 AM 20.7°F-6.3°C 15.3°F-9.3°C 79% 0.9 mph ESE1.4 kmh ESE 0.9 mph1.4 kmh 30.19 in1022.4 mb 0.00 in0.0 mm 0.00 in/hr0.0 mm/hr 0.00 in0.0 mm
07:13 AM 20.7°F-6.3°C 15.3°F-9.3°C 79% 0.9 mph ESE1.4 kmh ESE 0.9 mph1.4 kmh 30.19 in1022.4 mb 0.00 in0.0 mm 0.00 in/hr0.0 mm/hr 0.00 in0.0 mm
07:12 AM 20.7°F-6.3°C 15.3°F-9.3°C 79% 0.9 mph ESE1.4 kmh ESE 0.9 mph1.4 kmh 30.19 in1022.4 mb 0.00 in0.0 mm 0.00 in/hr0.0 mm/hr 0.00 in0.0 mm
07:11 AM 20.7°F-6.3°C 15.3°F-9.3°C 79% 0.9 mph ENE1.4 kmh ENE 0.9 mph1.4 kmh 30.19 in1022.4 mb 0.00 in0.0 mm 0.00 in/hr0.0 mm/hr 0.00 in0.0 mm
07:10 AM 20.7°F-6.3°C 15.3°F-9.3°C 79% 0.9 mph SE1.4 kmh SE 0.9 mph1.4 kmh 30.19 in1022.4 mb 0.00 in0.0 mm 0.00 in/hr0.0 mm/hr 0.00 in0.0 mm
07:09 AM 20.7°F-6.3°C 15.3°F-9.3°C 79% 0.9 mph E1.4 kmh E 2.0 mph3.2 kmh 30.19 in1022.4 mb 0.00 in0.0 mm 0.00 in/hr0.0 mm/hr 0.00 in0.0 mm
07:08 AM 20.7°F-6.3°C 15.3°F-9.3°C 79% 0.9 mph S1.4 kmh S 2.0 mph3.2 kmh 30.19 in1022.4 mb 0.00 in0.0 mm 0.00 in/hr0.0 mm/hr 0.00 in0.0 mm
07:07 AM 20.7°F-6.3°C 15.3°F-9.3°C 79% 0.9 mph ESE1.4 kmh ESE 2.0 mph3.2 kmh 30.19 in1022.4 mb 0.00 in0.0 mm 0.00 in/hr0.0 mm/hr 0.00 in0.0 mm
07:06 AM 20.7°F-6.3°C 15.3°F-9.3°C 79% 0.9 mph SE1.4 kmh SE 4.9 mph7.9 kmh 30.19 in1022.4 mb 0.00 in0.0 mm 0.00 in/hr0.0 mm/hr 0.00 in0.0 mm
07:05 AM 20.7°F-6.3°C 15.3°F-9.3°C 79% 0.9 mph SE1.4 kmh SE 4.9 mph7.9 kmh 30.19 in1022.4 mb 0.00 in0.0 mm 0.00 in/hr0.0 mm/hr 0.00 in0.0 mm
07:04 AM 20.7°F-6.3°C 15.3°F-9.3°C 79% 0.9 mph SE1.4 kmh SE 4.0 mph6.4 kmh 30.19 in1022.4 mb 0.00 in0.0 mm 0.00 in/hr0.0 mm/hr 0.00 in0.0 mm
07:03 AM 20.7°F-6.3°C 15.3°F-9.3°C 79% 0.9 mph SE1.4 kmh SE 4.0 mph6.4 kmh 30.19 in1022.4 mb 0.00 in0.0 mm 0.00 in/hr0.0 mm/hr 0.00 in0.0 mm
07:02 AM 20.7°F-6.3°C 15.3°F-9.3°C 79% 0.9 mph SE1.4 kmh SE 2.0 mph3.2 kmh 30.19 in1022.4 mb 0.00 in0.0 mm 0.00 in/hr0.0 mm/hr 0.00 in0.0 mm
07:01 AM 20.7°F-6.3°C 15.3°F-9.3°C 79% 0.9 mph S1.4 kmh S 4.0 mph6.4 kmh 30.19 in1022.4 mb 0.00 in0.0 mm 0.00 in/hr0.0 mm/hr 0.00 in0.0 mm
07:00 AM 20.7°F-6.3°C 15.3°F-9.3°C 79% 0.9 mph SE1.4 kmh SE 4.0 mph6.4 kmh 30.19 in1022.4 mb 0.00 in0.0 mm 0.00 in/hr0.0 mm/hr 0.00 in0.0 mm
06:59 AM 20.7°F-6.3°C 15.3°F-9.3°C 79% 0.9 mph ENE1.4 kmh ENE 2.0 mph3.2 kmh 30.19 in1022.4 mb 0.00 in0.0 mm 0.00 in/hr0.0 mm/hr 0.00 in0.0 mm
06:58 AM 20.7°F-6.3°C 15.3°F-9.3°C 79% 0.9 mph SE1.4 kmh SE 2.9 mph4.7 kmh 30.19 in1022.4 mb 0.00 in0.0 mm 0.00 in/hr0.0 mm/hr 0.00 in0.0 mm
06:57 AM 20.7°F-6.3°C 15.3°F-9.3°C 79% 0.9 mph ESE1.4 kmh ESE 4.9 mph7.9 kmh 30.19 in1022.4 mb 0.00 in0.0 mm 0.00 in/hr0.0 mm/hr 0.00 in0.0 mm
06:56 AM 20.7°F-6.3°C 15.3°F-9.3°C 79% 0.9 mph E1.4 kmh E 2.9 mph4.7 kmh 30.19 in1022.4 mb 0.00 in0.0 mm 0.00 in/hr0.0 mm/hr 0.00 in0.0 mm
06:55 AM 20.7°F-6.3°C 15.3°F-9.3°C 79% 0.9 mph SE1.4 kmh SE 4.0 mph6.4 kmh 30.19 in1022.4 mb 0.00 in0.0 mm 0.00 in/hr0.0 mm/hr 0.00 in0.0 mm
06:54 AM 20.7°F-6.3°C 15.3°F-9.3°C 79% 0.9 mph SE1.4 kmh SE 4.0 mph6.4 kmh 30.19 in1022.4 mb 0.00 in0.0 mm 0.00 in/hr0.0 mm/hr 0.00 in0.0 mm
06:53 AM 20.8°F-6.2°C 15.4°F-9.2°C 79% 0.9 mph SE1.4 kmh SE 2.0 mph3.2 kmh 30.19 in1022.4 mb 0.00 in0.0 mm 0.00 in/hr0.0 mm/hr 0.00 in0.0 mm
06:52 AM 20.8°F-6.2°C 15.4°F-9.2°C 79% 0.9 mph E1.4 kmh E 2.9 mph4.7 kmh 30.19 in1022.4 mb 0.00 in0.0 mm 0.00 in/hr0.0 mm/hr 0.00 in0.0 mm
06:51 AM 20.8°F-6.2°C 15.4°F-9.2°C 79% 0.9 mph SSE1.4 kmh SSE 2.9 mph4.7 kmh 30.19 in1022.4 mb 0.00 in0.0 mm 0.00 in/hr0.0 mm/hr 0.00 in0.0 mm
06:50 AM 20.8°F-6.2°C 15.4°F-9.2°C 79% 0.9 mph ESE1.4 kmh ESE 2.0 mph3.2 kmh 30.19 in1022.4 mb 0.00 in0.0 mm 0.00 in/hr0.0 mm/hr 0.00 in0.0 mm
06:49 AM 20.8°F-6.2°C 15.4°F-9.2°C 79% 0.9 mph ESE1.4 kmh ESE 2.0 mph3.2 kmh 30.19 in1022.4 mb 0.00 in0.0 mm 0.00 in/hr0.0 mm/hr 0.00 in0.0 mm
06:48 AM 20.8°F-6.2°C 15.1°F-9.4°C 78% 0.9 mph SE1.4 kmh SE 5.0 mph8.0 kmh 30.19 in1022.4 mb 0.00 in0.0 mm 0.00 in/hr0.0 mm/hr 0.00 in0.0 mm
06:47 AM 20.8°F-6.2°C 15.1°F-9.4°C 78% 0.9 mph ESE1.4 kmh ESE 4.0 mph6.4 kmh 30.19 in1022.4 mb 0.00 in0.0 mm 0.00 in/hr0.0 mm/hr 0.00 in0.0 mm
06:46 AM 21.0°F-6.1°C 15.3°F-9.3°C 78% 0.9 mph ESE1.4 kmh ESE 0.9 mph1.4 kmh 30.19 in1022.4 mb 0.00 in0.0 mm 0.00 in/hr0.0 mm/hr 0.00 in0.0 mm
06:45 AM 21.0°F-6.1°C 15.3°F-9.3°C 78% 0.9 mph SE1.4 kmh SE 0.9 mph1.4 kmh 30.19 in1022.4 mb 0.00 in0.0 mm 0.00 in/hr0.0 mm/hr 0.00 in0.0 mm
06:44 AM 21.0°F-6.1°C 15.3°F-9.3°C 78% 0.9 mph ESE1.4 kmh ESE 2.0 mph3.2 kmh 30.19 in1022.4 mb 0.00 in0.0 mm 0.00 in/hr0.0 mm/hr 0.00 in0.0 mm
06:43 AM 21.0°F-6.1°C 15.3°F-9.3°C 78% 0.9 mph ESE1.4 kmh ESE 0.9 mph1.4 kmh 30.19 in1022.4 mb 0.00 in0.0 mm 0.00 in/hr0.0 mm/hr 0.00 in0.0 mm
06:42 AM 21.2°F-6.0°C 15.4°F-9.2°C 78% 0.9 mph SE1.4 kmh SE 0.9 mph1.4 kmh 30.19 in1022.4 mb 0.00 in0.0 mm 0.00 in/hr0.0 mm/hr 0.00 in0.0 mm
06:40 AM 21.2°F-6.0°C 15.4°F-9.2°C 78% 0.9 mph ESE1.4 kmh ESE 2.0 mph3.2 kmh 30.19 in1022.4 mb 0.00 in0.0 mm 0.00 in/hr0.0 mm/hr 0.00 in0.0 mm
06:39 AM 21.4°F-5.9°C 15.6°F-9.1°C 78% 0.9 mph SE1.4 kmh SE 2.9 mph4.7 kmh 30.19 in1022.4 mb 0.00 in0.0 mm 0.00 in/hr0.0 mm/hr 0.00 in0.0 mm
06:38 AM 21.4°F-5.9°C 15.6°F-9.1°C 78% 0.9 mph SE1.4 kmh SE 5.0 mph8.0 kmh 30.19 in1022.4 mb 0.00 in0.0 mm 0.00 in/hr0.0 mm/hr 0.00 in0.0 mm
06:37 AM 21.4°F-5.9°C 15.6°F-9.1°C 78% 0.9 mph SE1.4 kmh SE 4.0 mph6.4 kmh 30.19 in1022.4 mb 0.00 in0.0 mm 0.00 in/hr0.0 mm/hr 0.00 in0.0 mm
06:36 AM 21.4°F-5.9°C 15.6°F-9.1°C 78% 0.9 mph SE1.4 kmh SE 0.9 mph1.4 kmh 30.19 in1022.4 mb 0.00 in0.0 mm 0.00 in/hr0.0 mm/hr 0.00 in0.0 mm
06:35 AM 21.4°F-5.9°C 15.6°F-9.1°C 78% 0.9 mph SSE1.4 kmh SSE 0.9 mph1.4 kmh 30.19 in1022.4 mb 0.00 in0.0 mm 0.00 in/hr0.0 mm/hr 0.00 in0.0 mm
06:34 AM 21.4°F-5.9°C 15.6°F-9.1°C 78% 0.9 mph ESE1.4 kmh ESE 2.9 mph4.7 kmh 30.19 in1022.4 mb 0.00 in0.0 mm 0.00 in/hr0.0 mm/hr 0.00 in0.0 mm
06:33 AM 21.4°F-5.9°C 15.6°F-9.1°C 78% 0.9 mph ESE1.4 kmh ESE 2.9 mph4.7 kmh 30.19 in1022.4 mb 0.00 in0.0 mm 0.00 in/hr0.0 mm/hr 0.00 in0.0 mm
06:32 AM 21.4°F-5.9°C 15.6°F-9.1°C 78% 0.9 mph SE1.4 kmh SE 2.9 mph4.7 kmh 30.19 in1022.4 mb 0.00 in0.0 mm 0.00 in/hr0.0 mm/hr 0.00 in0.0 mm
06:31 AM 21.4°F-5.9°C 15.6°F-9.1°C 78% 0.9 mph SE1.4 kmh SE 2.0 mph3.2 kmh 30.19 in1022.4 mb 0.00 in0.0 mm 0.00 in/hr0.0 mm/hr 0.00 in0.0 mm
06:30 AM 21.4°F-5.9°C 15.6°F-9.1°C 78% 0.9 mph SE1.4 kmh SE -- 30.19 in1022.4 mb 0.00 in0.0 mm 0.00 in/hr0.0 mm/hr 0.00 in0.0 mm
06:29 AM 21.4°F-5.9°C 15.6°F-9.1°C 78% 0.9 mph SE1.4 kmh SE 2.9 mph4.7 kmh 30.19 in1022.4 mb 0.00 in0.0 mm 0.00 in/hr0.0 mm/hr 0.00 in0.0 mm
06:28 AM 21.4°F-5.9°C 15.6°F-9.1°C 78% 0.9 mph SE1.4 kmh SE 2.9 mph4.7 kmh 30.19 in1022.4 mb 0.00 in0.0 mm 0.00 in/hr0.0 mm/hr 0.00 in0.0 mm
06:27 AM 21.4°F-5.9°C 15.6°F-9.1°C 78% 0.9 mph SE1.4 kmh SE 2.9 mph4.7 kmh 30.19 in1022.4 mb 0.00 in0.0 mm 0.00 in/hr0.0 mm/hr 0.00 in0.0 mm
06:26 AM 21.4°F-5.9°C 15.6°F-9.1°C 78% 0.9 mph ESE1.4 kmh ESE 2.0 mph3.2 kmh 30.19 in1022.4 mb 0.00 in0.0 mm 0.00 in/hr0.0 mm/hr 0.00 in0.0 mm
06:25 AM 21.4°F-5.9°C 15.6°F-9.1°C 78% 0.9 mph ESE1.4 kmh ESE 2.0 mph3.2 kmh 30.19 in1022.4 mb 0.00 in0.0 mm 0.00 in/hr0.0 mm/hr 0.00 in0.0 mm
06:24 AM 21.4°F-5.9°C 15.6°F-9.1°C 78% 0.9 mph ESE1.4 kmh ESE 4.0 mph6.4 kmh 30.19 in1022.4 mb 0.00 in0.0 mm 0.00 in/hr0.0 mm/hr 0.00 in0.0 mm
06:23 AM 21.4°F-5.9°C 15.6°F-9.1°C 78% Calm Calm 2.0 mph3.2 kmh 30.19 in1022.4 mb 0.00 in0.0 mm 0.00 in/hr0.0 mm/hr 0.00 in0.0 mm
06:22 AM 21.4°F-5.9°C 15.6°F-9.1°C 78% Calm Calm 2.9 mph4.7 kmh 30.19 in1022.4 mb 0.00 in0.0 mm 0.00 in/hr0.0 mm/hr 0.00 in0.0 mm
06:21 AM 21.4°F-5.9°C 15.8°F-9.0°C 79% Calm Calm 2.9 mph4.7 kmh 30.19 in1022.4 mb 0.00 in0.0 mm 0.00 in/hr0.0 mm/hr 0.00 in0.0 mm
06:20 AM 21.4°F-5.9°C 15.8°F-9.0°C 79% Calm Calm 0.9 mph1.4 kmh 30.19 in1022.4 mb 0.00 in0.0 mm 0.00 in/hr0.0 mm/hr 0.00 in0.0 mm
06:19 AM 21.4°F-5.9°C 15.8°F-9.0°C 79% Calm Calm 0.9 mph1.4 kmh 30.19 in1022.4 mb 0.00 in0.0 mm 0.00 in/hr0.0 mm/hr 0.00 in0.0 mm
06:18 AM 21.4°F-5.9°C 15.8°F-9.0°C 79% 0.9 mph SE1.4 kmh SE 0.9 mph1.4 kmh 30.19 in1022.4 mb 0.00 in0.0 mm 0.00 in/hr0.0 mm/hr 0.00 in0.0 mm
06:17 AM 21.4°F-5.9°C 15.6°F-9.1°C 78% 0.9 mph E1.4 kmh E 0.9 mph1.4 kmh 30.19 in1022.4 mb 0.00 in0.0 mm 0.00 in/hr0.0 mm/hr 0.00 in0.0 mm
06:16 AM 21.4°F-5.9°C 15.8°F-9.0°C 79% 0.9 mph E1.4 kmh E 2.0 mph3.2 kmh 30.19 in1022.4 mb 0.00 in0.0 mm 0.00 in/hr0.0 mm/hr 0.00 in0.0 mm
06:15 AM 21.4°F-5.9°C 15.8°F-9.0°C 79% 0.9 mph ENE1.4 kmh ENE 2.9 mph4.7 kmh 30.19 in1022.4 mb 0.00 in0.0 mm 0.00 in/hr0.0 mm/hr 0.00 in0.0 mm
06:14 AM 21.4°F-5.9°C 15.8°F-9.0°C 79% 0.9 mph NE1.4 kmh NE 2.0 mph3.2 kmh 30.17 in1021.7 mb 0.00 in0.0 mm 0.00 in/hr0.0 mm/hr 0.00 in0.0 mm
06:13 AM 21.4°F-5.9°C 16.2°F-8.8°C 80% 0.9 mph ESE1.4 kmh ESE 2.0 mph3.2 kmh 30.17 in1021.7 mb 0.00 in0.0 mm 0.00 in/hr0.0 mm/hr 0.00 in0.0 mm
06:12 AM 21.4°F-5.9°C 16.2°F-8.8°C 80% Calm Calm 2.0 mph3.2 kmh 30.17 in1021.7 mb 0.00 in0.0 mm 0.00 in/hr0.0 mm/hr 0.00 in0.0 mm
06:11 AM 21.4°F-5.9°C 16.2°F-8.8°C 80% 0.9 mph SE1.4 kmh SE 2.0 mph3.2 kmh 30.17 in1021.7 mb 0.00 in0.0 mm 0.00 in/hr0.0 mm/hr 0.00 in0.0 mm
06:10 AM 21.4°F-5.9°C 16.2°F-8.8°C 80% Calm Calm 0.9 mph1.4 kmh 30.17 in1021.7 mb 0.00 in0.0 mm 0.00 in/hr0.0 mm/hr 0.00 in0.0 mm
06:09 AM 21.4°F-5.9°C 16.2°F-8.8°C 80% Calm Calm 2.0 mph3.2 kmh 30.17 in1021.7 mb 0.00 in0.0 mm 0.00 in/hr0.0 mm/hr 0.00 in0.0 mm
06:08 AM 21.4°F-5.9°C 16.2°F-8.8°C 80% Calm Calm 2.0 mph3.2 kmh 30.17 in1021.7 mb 0.00 in0.0 mm 0.00 in/hr0.0 mm/hr 0.00 in0.0 mm
06:07 AM 21.4°F-5.9°C 16.2°F-8.8°C 80% Calm Calm 2.9 mph4.7 kmh 30.17 in1021.7 mb 0.00 in0.0 mm 0.00 in/hr0.0 mm/hr 0.00 in0.0 mm
06:06 AM 21.4°F-5.9°C 16.5°F-8.6°C 81% Calm Calm 2.0 mph3.2 kmh 30.17 in1021.7 mb 0.00 in0.0 mm 0.00 in/hr0.0 mm/hr 0.00 in0.0 mm
06:05 AM 21.4°F-5.9°C 16.5°F-8.6°C 81% Calm Calm 3.0 mph4.8 kmh 30.17 in1021.7 mb 0.00 in0.0 mm 0.00 in/hr0.0 mm/hr 0.00 in0.0 mm
06:04 AM 21.4°F-5.9°C 16.5°F-8.6°C 81% Calm Calm 0.9 mph1.4 kmh 30.17 in1021.7 mb 0.00 in0.0 mm 0.00 in/hr0.0 mm/hr 0.00 in0.0 mm
06:03 AM 21.4°F-5.9°C 16.5°F-8.6°C 81% Calm Calm 2.0 mph3.2 kmh 30.17 in1021.7 mb 0.00 in0.0 mm 0.00 in/hr0.0 mm/hr 0.00 in0.0 mm
06:02 AM 21.4°F-5.9°C 16.5°F-8.6°C 81% 0.9 mph SE1.4 kmh SE 2.0 mph3.2 kmh 30.17 in1021.7 mb 0.00 in0.0 mm 0.00 in/hr0.0 mm/hr 0.00 in0.0 mm
06:01 AM 21.4°F-5.9°C 16.5°F-8.6°C 81% 0.9 mph ESE1.4 kmh ESE 0.9 mph1.4 kmh 30.17 in1021.7 mb 0.00 in0.0 mm 0.00 in/hr0.0 mm/hr 0.00 in0.0 mm
06:00 AM 21.4°F-5.9°C 16.5°F-8.6°C 81% 0.9 mph SE1.4 kmh SE -- 30.17 in1021.7 mb 0.00 in0.0 mm 0.00 in/hr0.0 mm/hr 0.00 in0.0 mm
05:59 AM 21.4°F-5.9°C 16.5°F-8.6°C 81% 0.9 mph SE1.4 kmh SE 0.9 mph1.4 kmh 30.17 in1021.7 mb 0.00 in0.0 mm 0.00 in/hr0.0 mm/hr 0.00 in0.0 mm
05:58 AM 21.4°F-5.9°C 16.5°F-8.6°C 81% 0.9 mph SE1.4 kmh SE 0.9 mph1.4 kmh 30.17 in1021.7 mb 0.00 in0.0 mm 0.00 in/hr0.0 mm/hr 0.00 in0.0 mm
05:57 AM 21.4°F-5.9°C 16.5°F-8.6°C 81% 0.9 mph ESE1.4 kmh ESE 2.0 mph3.2 kmh 30.17 in1021.7 mb 0.00 in0.0 mm 0.00 in/hr0.0 mm/hr 0.00 in0.0 mm
05:56 AM 21.4°F-5.9°C 16.5°F-8.6°C 81% 0.9 mph SE1.4 kmh SE 2.0 mph3.2 kmh 30.17 in1021.7 mb 0.00 in0.0 mm 0.00 in/hr0.0 mm/hr 0.00 in0.0 mm
05:55 AM 21.4°F-5.9°C 16.2°F-8.8°C 80% 0.9 mph ENE1.4 kmh ENE 2.0 mph3.2 kmh 30.17 in1021.7 mb 0.00 in0.0 mm 0.00 in/hr0.0 mm/hr 0.00 in0.0 mm
05:54 AM 21.4°F-5.9°C 16.2°F-8.8°C 80% 0.9 mph ESE1.4 kmh ESE 2.9 mph4.7 kmh 30.17 in1021.7 mb 0.00 in0.0 mm 0.00 in/hr0.0 mm/hr 0.00 in0.0 mm
05:53 AM 21.4°F-5.9°C 16.2°F-8.8°C 80% 0.9 mph E1.4 kmh E 2.0 mph3.2 kmh 30.17 in1021.7 mb 0.00 in0.0 mm 0.00 in/hr0.0 mm/hr 0.00 in0.0 mm
05:52 AM 21.4°F-5.9°C 16.5°F-8.6°C 81% 0.9 mph NE1.4 kmh NE 0.9 mph1.4 kmh 30.17 in1021.7 mb 0.00 in0.0 mm 0.00 in/hr0.0 mm/hr 0.00 in0.0 mm
05:51 AM 21.4°F-5.9°C 16.5°F-8.6°C 81% 0.9 mph SSE1.4 kmh SSE 2.9 mph4.7 kmh 30.17 in1021.7 mb 0.00 in0.0 mm 0.00 in/hr0.0 mm/hr 0.00 in0.0 mm
05:50 AM 21.4°F-5.9°C 16.5°F-8.6°C 81% 0.9 mph SE1.4 kmh SE 2.0 mph3.2 kmh 30.17 in1021.7 mb 0.00 in0.0 mm 0.00 in/hr0.0 mm/hr 0.00 in0.0 mm
05:49 AM 21.4°F-5.9°C 16.5°F-8.6°C 81% 0.9 mph E1.4 kmh E 2.0 mph3.2 kmh 30.17 in1021.7 mb 0.00 in0.0 mm 0.00 in/hr0.0 mm/hr 0.00 in0.0 mm
05:48 AM 21.4°F-5.9°C 16.5°F-8.6°C 81% 0.9 mph SSW1.4 kmh SSW 0.9 mph1.4 kmh 30.17 in1021.7 mb 0.00 in0.0 mm 0.00 in/hr0.0 mm/hr 0.00 in0.0 mm
05:47 AM 21.4°F-5.9°C 16.5°F-8.6°C 81% 0.9 mph NE1.4 kmh NE 2.9 mph4.7 kmh 30.17 in1021.7 mb 0.00 in0.0 mm 0.00 in/hr0.0 mm/hr 0.00 in0.0 mm
05:46 AM 21.6°F-5.8°C 16.7°F-8.5°C 81% 0.9 mph NE1.4 kmh NE 2.0 mph3.2 kmh 30.17 in1021.7 mb 0.00 in0.0 mm 0.00 in/hr0.0 mm/hr 0.00 in0.0 mm
05:45 AM 21.6°F-5.8°C 16.7°F-8.5°C 81% 0.9 mph E1.4 kmh E 4.0 mph6.4 kmh 30.17 in1021.7 mb 0.00 in0.0 mm 0.00 in/hr0.0 mm/hr 0.00 in0.0 mm
05:44 AM 21.6°F-5.8°C 16.7°F-8.5°C 81% 0.9 mph SE1.4 kmh SE 4.0 mph6.4 kmh 30.15 in1021.0 mb 0.00 in0.0 mm 0.00 in/hr0.0 mm/hr 0.00 in0.0 mm
05:43 AM 21.6°F-5.8°C 16.7°F-8.5°C 81% 0.9 mph SE1.4 kmh SE 2.9 mph4.7 kmh 30.15 in1021.0 mb 0.00 in0.0 mm 0.00 in/hr0.0 mm/hr 0.00 in0.0 mm
05:42 AM 21.6°F-5.8°C 16.7°F-8.5°C 81% 0.9 mph SE1.4 kmh SE 2.0 mph3.2 kmh 30.15 in1021.0 mb 0.00 in0.0 mm 0.00 in/hr0.0 mm/hr 0.00 in0.0 mm
05:41 AM 21.6°F-5.8°C 16.7°F-8.5°C 81% 0.9 mph SE1.4 kmh SE 0.9 mph1.4 kmh 30.15 in1021.0 mb 0.00 in0.0 mm 0.00 in/hr0.0 mm/hr 0.00 in0.0 mm
05:40 AM 21.6°F-5.8°C 16.7°F-8.5°C 81% 0.9 mph SE1.4 kmh SE 0.9 mph1.4 kmh 30.15 in1021.0 mb 0.00 in0.0 mm 0.00 in/hr0.0 mm/hr 0.00 in0.0 mm
05:39 AM 21.7°F-5.7°C 16.5°F-8.6°C 80% 0.9 mph SE1.4 kmh SE 2.0 mph3.2 kmh 30.15 in1021.0 mb 0.00 in0.0 mm 0.00 in/hr0.0 mm/hr 0.00 in0.0 mm
05:38 AM 21.7°F-5.7°C 16.5°F-8.6°C 80% 0.9 mph SE1.4 kmh SE 4.0 mph6.4 kmh 30.15 in1021.0 mb 0.00 in0.0 mm 0.00 in/hr0.0 mm/hr 0.00 in0.0 mm
05:37 AM 21.7°F-5.7°C 16.9°F-8.4°C 81% 0.9 mph SE1.4 kmh SE 4.0 mph6.4 kmh 30.15 in1021.0 mb 0.00 in0.0 mm 0.00 in/hr0.0 mm/hr 0.00 in0.0 mm
05:36 AM 21.7°F-5.7°C 16.5°F-8.6°C 80% 0.9 mph SE1.4 kmh SE 0.9 mph1.4 kmh 30.15 in1021.0 mb 0.00 in0.0 mm 0.00 in/hr0.0 mm/hr 0.00 in0.0 mm
05:35 AM 21.9°F-5.6°C 16.7°F-8.5°C 80% 0.9 mph ESE1.4 kmh ESE 0.9 mph1.4 kmh 30.15 in1021.0 mb 0.00 in0.0 mm 0.00 in/hr0.0 mm/hr 0.00 in0.0 mm
05:34 AM 21.9°F-5.6°C 16.7°F-8.5°C 80% 0.9 mph SSE1.4 kmh SSE 6.0 mph9.7 kmh 30.15 in1021.0 mb 0.00 in0.0 mm 0.00 in/hr0.0 mm/hr 0.00 in0.0 mm
05:33 AM 21.9°F-5.6°C 16.3°F-8.7°C 79% 0.9 mph SE1.4 kmh SE 4.9 mph7.9 kmh 30.15 in1021.0 mb 0.00 in0.0 mm 0.00 in/hr0.0 mm/hr 0.00 in0.0 mm
05:32 AM 21.9°F-5.6°C 16.3°F-8.7°C 79% 0.9 mph E1.4 kmh E 4.0 mph6.4 kmh 30.15 in1021.0 mb 0.00 in0.0 mm 0.00 in/hr0.0 mm/hr 0.00 in0.0 mm
05:31 AM 21.9°F-5.6°C 16.3°F-8.7°C 79% 0.9 mph SSE1.4 kmh SSE 4.0 mph6.4 kmh 30.15 in1021.0 mb 0.00 in0.0 mm 0.00 in/hr0.0 mm/hr 0.00 in0.0 mm
05:30 AM 21.9°F-5.6°C 16.3°F-8.7°C 79% 0.9 mph SSE1.4 kmh SSE 0.9 mph1.4 kmh 30.15 in1021.0 mb 0.00 in0.0 mm 0.00 in/hr0.0 mm/hr 0.00 in0.0 mm
05:29 AM 22.1°F-5.5°C 16.5°F-8.6°C 79% 0.9 mph SE1.4 kmh SE 2.0 mph3.2 kmh 30.15 in1021.0 mb 0.00 in0.0 mm 0.00 in/hr0.0 mm/hr 0.00 in0.0 mm
05:28 AM 22.1°F-5.5°C 16.5°F-8.6°C 79% 0.9 mph S1.4 kmh S 2.9 mph4.7 kmh 30.15 in1021.0 mb 0.00 in0.0 mm 0.00 in/hr0.0 mm/hr 0.00 in0.0 mm
05:27 AM 22.1°F-5.5°C 16.5°F-8.6°C 79% 0.9 mph ESE1.4 kmh ESE 2.0 mph3.2 kmh 30.15 in1021.0 mb 0.00 in0.0 mm 0.00 in/hr0.0 mm/hr 0.00 in0.0 mm
05:26 AM 22.1°F-5.5°C 16.3°F-8.7°C 78% 0.9 mph SE1.4 kmh SE 0.9 mph1.4 kmh 30.15 in1021.0 mb 0.00 in0.0 mm 0.00 in/hr0.0 mm/hr 0.00 in0.0 mm
05:25 AM 22.1°F-5.5°C 16.3°F-8.7°C 78% 0.9 mph ESE1.4 kmh ESE 2.9 mph4.7 kmh 30.15 in1021.0 mb 0.00 in0.0 mm 0.00 in/hr0.0 mm/hr 0.00 in0.0 mm
05:24 AM 22.1°F-5.5°C 16.3°F-8.7°C 78% 0.9 mph ESE1.4 kmh ESE 2.9 mph4.7 kmh 30.15 in1021.0 mb 0.00 in0.0 mm 0.00 in/hr0.0 mm/hr 0.00 in0.0 mm
05:23 AM 22.1°F-5.5°C 16.3°F-8.7°C 78% 0.9 mph ESE1.4 kmh ESE 2.0 mph3.2 kmh 30.15 in1021.0 mb 0.00 in0.0 mm 0.00 in/hr0.0 mm/hr 0.00 in0.0 mm
05:22 AM 22.3°F-5.4°C 16.2°F-8.8°C 77% 0.9 mph SE1.4 kmh SE 2.0 mph3.2 kmh 30.15 in1021.0 mb 0.00 in0.0 mm 0.00 in/hr0.0 mm/hr 0.00 in0.0 mm
05:21 AM 22.3°F-5.4°C 16.2°F-8.8°C 77% 0.9 mph SE1.4 kmh SE 2.0 mph3.2 kmh 30.15 in1021.0 mb 0.00 in0.0 mm 0.00 in/hr0.0 mm/hr 0.00 in0.0 mm
05:20 AM 22.1°F-5.5°C 16.0°F-8.9°C 77% 0.9 mph SE1.4 kmh SE 2.0 mph3.2 kmh 30.15 in1021.0 mb 0.00 in0.0 mm 0.00 in/hr0.0 mm/hr 0.00 in0.0 mm
05:19 AM 22.3°F-5.4°C 16.2°F-8.8°C 77% 0.9 mph SW1.4 kmh SW 2.0 mph3.2 kmh 30.15 in1021.0 mb 0.00 in0.0 mm 0.00 in/hr0.0 mm/hr 0.00 in0.0 mm
05:18 AM 22.3°F-5.4°C 16.2°F-8.8°C 77% 0.9 mph SSE1.4 kmh SSE 2.9 mph4.7 kmh 30.15 in1021.0 mb 0.00 in0.0 mm 0.00 in/hr0.0 mm/hr 0.00 in0.0 mm
05:17 AM 22.3°F-5.4°C 16.2°F-8.8°C 77% 0.9 mph E1.4 kmh E 2.9 mph4.7 kmh 30.15 in1021.0 mb 0.00 in0.0 mm 0.00 in/hr0.0 mm/hr 0.00 in0.0 mm
05:16 AM 22.3°F-5.4°C 16.2°F-8.8°C 77% 0.9 mph ESE1.4 kmh ESE 2.9 mph4.7 kmh 30.15 in1021.0 mb 0.00 in0.0 mm 0.00 in/hr0.0 mm/hr 0.00 in0.0 mm
05:15 AM 22.3°F-5.4°C 16.2°F-8.8°C 77% 0.9 mph ESE1.4 kmh ESE 2.0 mph3.2 kmh 30.15 in1021.0 mb 0.00 in0.0 mm 0.00 in/hr0.0 mm/hr 0.00 in0.0 mm
05:14 AM 22.3°F-5.4°C 16.2°F-8.8°C 77% 0.9 mph SE1.4 kmh SE 2.0 mph3.2 kmh 30.15 in1021.0 mb 0.00 in0.0 mm 0.00 in/hr0.0 mm/hr 0.00 in0.0 mm
05:13 AM 22.3°F-5.4°C 16.2°F-8.8°C 77% 0.9 mph E1.4 kmh E 2.0 mph3.2 kmh 30.15 in1021.0 mb 0.00 in0.0 mm 0.00 in/hr0.0 mm/hr 0.00 in0.0 mm
05:12 AM 22.1°F-5.5°C 15.6°F-9.1°C 76% 0.9 mph SE1.4 kmh SE 2.0 mph3.2 kmh 30.15 in1021.0 mb 0.00 in0.0 mm 0.00 in/hr0.0 mm/hr 0.00 in0.0 mm
05:11 AM 22.1°F-5.5°C 15.6°F-9.1°C 76% 0.9 mph SE1.4 kmh SE 2.9 mph4.7 kmh 30.15 in1021.0 mb 0.00 in0.0 mm 0.00 in/hr0.0 mm/hr 0.00 in0.0 mm
05:10 AM 22.1°F-5.5°C 15.6°F-9.1°C 76% 0.9 mph NE1.4 kmh NE 2.9 mph4.7 kmh 30.15 in1021.0 mb 0.00 in0.0 mm 0.00 in/hr0.0 mm/hr 0.00 in0.0 mm
05:09 AM 22.1°F-5.5°C 15.6°F-9.1°C 76% 0.9 mph SE1.4 kmh SE 0.9 mph1.4 kmh 30.15 in1021.0 mb 0.00 in0.0 mm 0.00 in/hr0.0 mm/hr 0.00 in0.0 mm
05:08 AM 21.9°F-5.6°C 15.4°F-9.2°C 76% 0.9 mph SE1.4 kmh SE 0.9 mph1.4 kmh 30.15 in1021.0 mb 0.00 in0.0 mm 0.00 in/hr0.0 mm/hr 0.00 in0.0 mm
05:07 AM 21.9°F-5.6°C 15.4°F-9.2°C 76% 0.9 mph SE1.4 kmh SE 2.0 mph3.2 kmh 30.15 in1021.0 mb 0.00 in0.0 mm 0.00 in/hr0.0 mm/hr 0.00 in0.0 mm
05:06 AM 21.9°F-5.6°C 15.4°F-9.2°C 76% 0.9 mph ENE1.4 kmh ENE 2.9 mph4.7 kmh 30.15 in1021.0 mb 0.00 in0.0 mm 0.00 in/hr0.0 mm/hr 0.00 in0.0 mm
05:05 AM 21.9°F-5.6°C 15.4°F-9.2°C 76% Calm Calm 2.0 mph3.2 kmh 30.15 in1021.0 mb 0.00 in0.0 mm 0.00 in/hr0.0 mm/hr 0.00 in0.0 mm
05:04 AM 21.9°F-5.6°C 15.3°F-9.3°C 75% 0.9 mph E1.4 kmh E 0.9 mph1.4 kmh 30.15 in1021.0 mb 0.00 in0.0 mm 0.00 in/hr0.0 mm/hr 0.00 in0.0 mm
05:03 AM 21.9°F-5.6°C 15.3°F-9.3°C 75% 0.9 mph SE1.4 kmh SE 2.9 mph4.7 kmh 30.15 in1021.0 mb 0.00 in0.0 mm 0.00 in/hr0.0 mm/hr 0.00 in0.0 mm
05:02 AM 21.9°F-5.6°C 15.3°F-9.3°C 75% 0.9 mph NE1.4 kmh NE 2.9 mph4.7 kmh 30.15 in1021.0 mb 0.00 in0.0 mm 0.00 in/hr0.0 mm/hr 0.00 in0.0 mm
05:01 AM 21.9°F-5.6°C 15.3°F-9.3°C 75% 0.9 mph SSE1.4 kmh SSE 2.0 mph3.2 kmh 30.15 in1021.0 mb 0.00 in0.0 mm 0.00 in/hr0.0 mm/hr 0.00 in0.0 mm
05:00 AM 21.9°F-5.6°C 15.3°F-9.3°C 75% 0.9 mph NE1.4 kmh NE 2.0 mph3.2 kmh 30.15 in1021.0 mb 0.00 in0.0 mm 0.00 in/hr0.0 mm/hr 0.00 in0.0 mm
04:59 AM 21.9°F-5.6°C 15.3°F-9.3°C 75% 0.9 mph E1.4 kmh E 0.9 mph1.4 kmh 30.14 in1020.7 mb 0.00 in0.0 mm 0.00 in/hr0.0 mm/hr 0.00 in0.0 mm
04:58 AM 21.9°F-5.6°C 15.3°F-9.3°C 75% 0.9 mph ESE1.4 kmh ESE 0.9 mph1.4 kmh 30.14 in1020.7 mb 0.00 in0.0 mm 0.00 in/hr0.0 mm/hr 0.00 in0.0 mm
04:57 AM 21.9°F-5.6°C 15.3°F-9.3°C 75% 0.9 mph ESE1.4 kmh ESE 0.9 mph1.4 kmh 30.14 in1020.7 mb 0.00 in0.0 mm 0.00 in/hr0.0 mm/hr 0.00 in0.0 mm
04:56 AM 21.9°F-5.6°C 15.3°F-9.3°C 75% 0.9 mph E1.4 kmh E 0.9 mph1.4 kmh 30.14 in1020.7 mb 0.00 in0.0 mm 0.00 in/hr0.0 mm/hr 0.00 in0.0 mm
04:55 AM 21.9°F-5.6°C 15.3°F-9.3°C 75% 0.9 mph NE1.4 kmh NE 2.0 mph3.2 kmh 30.14 in1020.7 mb 0.00 in0.0 mm 0.00 in/hr0.0 mm/hr 0.00 in0.0 mm
04:54 AM 21.9°F-5.6°C 15.3°F-9.3°C 75% 0.9 mph SE1.4 kmh SE 2.9 mph4.7 kmh 30.14 in1020.7 mb 0.00 in0.0 mm 0.00 in/hr0.0 mm/hr 0.00 in0.0 mm
04:53 AM 21.9°F-5.6°C 15.3°F-9.3°C 75% 0.9 mph ESE1.4 kmh ESE 2.0 mph3.2 kmh 30.14 in1020.7 mb 0.00 in0.0 mm 0.00 in/hr0.0 mm/hr 0.00 in0.0 mm
04:52 AM 21.9°F-5.6°C 15.3°F-9.3°C 75% 0.9 mph E1.4 kmh E 2.0 mph3.2 kmh 30.14 in1020.7 mb 0.00 in0.0 mm 0.00 in/hr0.0 mm/hr 0.00 in0.0 mm
04:51 AM 22.1°F-5.5°C 15.4°F-9.2°C 75% 0.9 mph NE1.4 kmh NE 2.0 mph3.2 kmh 30.14 in1020.7 mb 0.00 in0.0 mm 0.00 in/hr0.0 mm/hr 0.00 in0.0 mm
04:50 AM 22.1°F-5.5°C 15.4°F-9.2°C 75% 0.9 mph SE1.4 kmh SE 2.9 mph4.7 kmh 30.14 in1020.7 mb 0.00 in0.0 mm 0.00 in/hr0.0 mm/hr 0.00 in0.0 mm
04:49 AM 22.1°F-5.5°C 15.4°F-9.2°C 75% 0.9 mph ENE1.4 kmh ENE 2.9 mph4.7 kmh 30.14 in1020.7 mb 0.00 in0.0 mm 0.00 in/hr0.0 mm/hr 0.00 in0.0 mm
04:48 AM 22.3°F-5.4°C 15.6°F-9.1°C 75% 0.9 mph ENE1.4 kmh ENE 2.0 mph3.2 kmh 30.14 in1020.7 mb 0.00 in0.0 mm 0.00 in/hr0.0 mm/hr 0.00 in0.0 mm
04:47 AM 22.3°F-5.4°C 15.6°F-9.1°C 75% 0.9 mph ENE1.4 kmh ENE 2.0 mph3.2 kmh 30.14 in1020.7 mb 0.00 in0.0 mm 0.00 in/hr0.0 mm/hr 0.00 in0.0 mm
04:46 AM 22.3°F-5.4°C 15.6°F-9.1°C 75% 0.9 mph E1.4 kmh E 2.0 mph3.2 kmh 30.14 in1020.7 mb 0.00 in0.0 mm 0.00 in/hr0.0 mm/hr 0.00 in0.0 mm
04:45 AM 22.3°F-5.4°C 15.3°F-9.3°C 74% 0.9 mph E1.4 kmh E 4.9 mph7.9 kmh 30.14 in1020.7 mb 0.00 in0.0 mm 0.00 in/hr0.0 mm/hr 0.00 in0.0 mm
04:44 AM 22.3°F-5.4°C 15.3°F-9.3°C 74% 0.9 mph E1.4 kmh E 2.0 mph3.2 kmh 30.14 in1020.7 mb 0.00 in0.0 mm 0.00 in/hr0.0 mm/hr 0.00 in0.0 mm
04:43 AM 22.5°F-5.3°C 15.4°F-9.2°C 74% 0.9 mph SE1.4 kmh SE 2.9 mph4.7 kmh 30.14 in1020.7 mb 0.00 in0.0 mm 0.00 in/hr0.0 mm/hr 0.00 in0.0 mm
04:42 AM 22.5°F-5.3°C 15.4°F-9.2°C 74% 0.9 mph E1.4 kmh E 2.9 mph4.7 kmh 30.14 in1020.7 mb 0.00 in0.0 mm 0.00 in/hr0.0 mm/hr 0.00 in0.0 mm
04:41 AM 22.5°F-5.3°C 15.4°F-9.2°C 74% 0.9 mph SE1.4 kmh SE 2.9 mph4.7 kmh 30.14 in1020.7 mb 0.00 in0.0 mm 0.00 in/hr0.0 mm/hr 0.00 in0.0 mm
04:40 AM 22.5°F-5.3°C 15.4°F-9.2°C 74% 0.9 mph ENE1.4 kmh ENE 5.0 mph8.0 kmh 30.14 in1020.7 mb 0.00 in0.0 mm 0.00 in/hr0.0 mm/hr 0.00 in0.0 mm
04:39 AM 22.5°F-5.3°C 15.4°F-9.2°C 74% 0.9 mph ESE1.4 kmh ESE 4.0 mph6.4 kmh 30.14 in1020.7 mb 0.00 in0.0 mm 0.00 in/hr0.0 mm/hr 0.00 in0.0 mm
04:38 AM 22.6°F-5.2°C 15.6°F-9.1°C 74% 0.9 mph ESE1.4 kmh ESE 4.0 mph6.4 kmh 30.14 in1020.7 mb 0.00 in0.0 mm 0.00 in/hr0.0 mm/hr 0.00 in0.0 mm
04:37 AM 22.6°F-5.2°C 15.6°F-9.1°C 74% 0.9 mph SE1.4 kmh SE 2.0 mph3.2 kmh 30.14 in1020.7 mb 0.00 in0.0 mm 0.00 in/hr0.0 mm/hr 0.00 in0.0 mm
04:36 AM 22.6°F-5.2°C 15.6°F-9.1°C 74% 0.9 mph SE1.4 kmh SE 2.9 mph4.7 kmh 30.14 in1020.7 mb 0.00 in0.0 mm 0.00 in/hr0.0 mm/hr 0.00 in0.0 mm
04:35 AM 22.6°F-5.2°C 15.6°F-9.1°C 74% 0.9 mph SE1.4 kmh SE 2.9 mph4.7 kmh 30.14 in1020.7 mb 0.00 in0.0 mm 0.00 in/hr0.0 mm/hr 0.00 in0.0 mm
04:34 AM 22.8°F-5.1°C 15.8°F-9.0°C 74% 0.9 mph ENE1.4 kmh ENE 2.9 mph4.7 kmh 30.14 in1020.7 mb 0.00 in0.0 mm 0.00 in/hr0.0 mm/hr 0.00 in0.0 mm
04:33 AM 22.8°F-5.1°C 15.8°F-9.0°C 74% 0.9 mph E1.4 kmh E 0.9 mph1.4 kmh 30.14 in1020.7 mb 0.00 in0.0 mm 0.00 in/hr0.0 mm/hr 0.00 in0.0 mm
04:32 AM 22.8°F-5.1°C 15.8°F-9.0°C 74% 0.9 mph ESE1.4 kmh ESE 2.0 mph3.2 kmh 30.14 in1020.7 mb 0.00 in0.0 mm 0.00 in/hr0.0 mm/hr 0.00 in0.0 mm
04:31 AM 22.8°F-5.1°C 15.8°F-9.0°C 74% 0.9 mph SE1.4 kmh SE 2.0 mph3.2 kmh 30.14 in1020.7 mb 0.00 in0.0 mm 0.00 in/hr0.0 mm/hr 0.00 in0.0 mm
04:30 AM 23.0°F-5.0°C 16.0°F-8.9°C 74% Calm Calm 4.0 mph6.4 kmh 30.14 in1020.7 mb 0.00 in0.0 mm 0.00 in/hr0.0 mm/hr 0.00 in0.0 mm
04:29 AM 23.2°F-4.9°C 16.2°F-8.8°C 74% Calm Calm 2.0 mph3.2 kmh 30.14 in1020.7 mb 0.00 in0.0 mm 0.00 in/hr0.0 mm/hr 0.00 in0.0 mm
04:28 AM 23.2°F-4.9°C 16.2°F-8.8°C 74% Calm Calm 2.0 mph3.2 kmh 30.14 in1020.7 mb 0.00 in0.0 mm 0.00 in/hr0.0 mm/hr 0.00 in0.0 mm
04:27 AM 23.2°F-4.9°C 16.2°F-8.8°C 74% Calm Calm 2.0 mph3.2 kmh 30.14 in1020.7 mb 0.00 in0.0 mm 0.00 in/hr0.0 mm/hr 0.00 in0.0 mm
04:26 AM 23.4°F-4.8°C 16.0°F-8.9°C 73% Calm Calm 2.0 mph3.2 kmh 30.14 in1020.7 mb 0.00 in0.0 mm 0.00 in/hr0.0 mm/hr 0.00 in0.0 mm
04:25 AM 23.4°F-4.8°C 16.0°F-8.9°C 73% Calm Calm 0.9 mph1.4 kmh 30.14 in1020.7 mb 0.00 in0.0 mm 0.00 in/hr0.0 mm/hr 0.00 in0.0 mm
04:24 AM 23.4°F-4.8°C 16.0°F-8.9°C 73% Calm Calm 0.9 mph1.4 kmh 30.14 in1020.7 mb 0.00 in0.0 mm 0.00 in/hr0.0 mm/hr 0.00 in0.0 mm
04:23 AM 23.4°F-4.8°C 16.0°F-8.9°C 73% Calm Calm 0.9 mph1.4 kmh 30.14 in1020.7 mb 0.00 in0.0 mm 0.00 in/hr0.0 mm/hr 0.00 in0.0 mm
04:22 AM 23.5°F-4.7°C 15.8°F-9.0°C 72% Calm Calm 0.9 mph1.4 kmh 30.14 in1020.7 mb 0.00 in0.0 mm 0.00 in/hr0.0 mm/hr 0.00 in0.0 mm
04:21 AM 23.5°F-4.7°C 15.8°F-9.0°C 72% Calm Calm 0.9 mph1.4 kmh 30.14 in1020.7 mb 0.00 in0.0 mm 0.00 in/hr0.0 mm/hr 0.00 in0.0 mm
04:20 AM 23.5°F-4.7°C 15.8°F-9.0°C 72% Calm Calm 0.9 mph1.4 kmh 30.14 in1020.7 mb 0.00 in0.0 mm 0.00 in/hr0.0 mm/hr 0.00 in0.0 mm
04:19 AM 23.7°F-4.6°C 16.0°F-8.9°C 72% Calm Calm 0.9 mph1.4 kmh 30.14 in1020.7 mb 0.00 in0.0 mm 0.00 in/hr0.0 mm/hr 0.00 in0.0 mm
04:18 AM 23.7°F-4.6°C 16.0°F-8.9°C 72% Calm Calm 0.9 mph1.4 kmh 30.14 in1020.7 mb 0.00 in0.0 mm 0.00 in/hr0.0 mm/hr 0.00 in0.0 mm
04:17 AM 23.7°F-4.6°C 16.0°F-8.9°C 72% 0.9 mph E1.4 kmh E -- 30.14 in1020.7 mb 0.00 in0.0 mm 0.00 in/hr0.0 mm/hr 0.00 in0.0 mm
04:16 AM 23.7°F-4.6°C 16.0°F-8.9°C 72% 0.9 mph ENE1.4 kmh ENE 0.9 mph1.4 kmh 30.14 in1020.7 mb 0.00 in0.0 mm 0.00 in/hr0.0 mm/hr 0.00 in0.0 mm
04:15 AM 23.9°F-4.5°C 15.8°F-9.0°C 71% 0.9 mph ENE1.4 kmh ENE 2.0 mph3.2 kmh 30.14 in1020.7 mb 0.00 in0.0 mm 0.00 in/hr0.0 mm/hr 0.00 in0.0 mm
04:14 AM 24.1°F-4.4°C 16.0°F-8.9°C 71% 0.9 mph ENE1.4 kmh ENE 2.0 mph3.2 kmh 30.14 in1020.7 mb 0.00 in0.0 mm 0.00 in/hr0.0 mm/hr 0.00 in0.0 mm
04:13 AM 24.1°F-4.4°C 16.0°F-8.9°C 71% 0.9 mph E1.4 kmh E 0.9 mph1.4 kmh 30.14 in1020.7 mb 0.00 in0.0 mm 0.00 in/hr0.0 mm/hr 0.00 in0.0 mm
04:12 AM 24.1°F-4.4°C 16.0°F-8.9°C 71% 0.9 mph E1.4 kmh E 0.9 mph1.4 kmh 30.14 in1020.7 mb 0.00 in0.0 mm 0.00 in/hr0.0 mm/hr 0.00 in0.0 mm
04:11 AM 24.3°F-4.3°C 16.2°F-8.8°C 71% 0.9 mph E1.4 kmh E 2.0 mph3.2 kmh 30.14 in1020.7 mb 0.00 in0.0 mm 0.00 in/hr0.0 mm/hr 0.00 in0.0 mm
04:10 AM 24.3°F-4.3°C 16.2°F-8.8°C 71% 0.9 mph ENE1.4 kmh ENE 2.0 mph3.2 kmh 30.14 in1020.7 mb 0.00 in0.0 mm 0.00 in/hr0.0 mm/hr 0.00 in0.0 mm
04:09 AM 24.3°F-4.3°C 16.2°F-8.8°C 71% 0.9 mph ESE1.4 kmh ESE 2.0 mph3.2 kmh 30.14 in1020.7 mb 0.00 in0.0 mm 0.00 in/hr0.0 mm/hr 0.00 in0.0 mm
04:08 AM 24.4°F-4.2°C 16.0°F-8.9°C 70% 0.9 mph NE1.4 kmh NE 4.9 mph7.9 kmh 30.14 in1020.7 mb 0.00 in0.0 mm 0.00 in/hr0.0 mm/hr 0.00 in0.0 mm
04:07 AM 24.4°F-4.2°C 16.0°F-8.9°C 70% 0.9 mph NE1.4 kmh NE 4.9 mph7.9 kmh 30.14 in1020.7 mb 0.00 in0.0 mm 0.00 in/hr0.0 mm/hr 0.00 in0.0 mm
04:06 AM 24.4°F-4.2°C 16.0°F-8.9°C 70% 0.9 mph NE1.4 kmh NE 2.0 mph3.2 kmh 30.14 in1020.7 mb 0.00 in0.0 mm 0.00 in/hr0.0 mm/hr 0.00 in0.0 mm
04:05 AM 24.6°F-4.1°C 16.2°F-8.8°C 70% 2.0 mph ENE3.2 kmh ENE 2.0 mph3.2 kmh 30.14 in1020.7 mb 0.00 in0.0 mm 0.00 in/hr0.0 mm/hr 0.00 in0.0 mm
04:04 AM 24.6°F-4.1°C 16.2°F-8.8°C 70% 2.0 mph ENE3.2 kmh ENE 2.0 mph3.2 kmh 30.14 in1020.7 mb 0.00 in0.0 mm 0.00 in/hr0.0 mm/hr 0.00 in0.0 mm
04:03 AM 24.6°F-4.1°C 16.2°F-8.8°C 70% 2.0 mph ENE3.2 kmh ENE 2.0 mph3.2 kmh 30.14 in1020.7 mb 0.00 in0.0 mm 0.00 in/hr0.0 mm/hr 0.00 in0.0 mm
04:02 AM 24.6°F-4.1°C 16.0°F-8.9°C 69% 2.0 mph ENE3.2 kmh ENE 2.0 mph3.2 kmh 30.14 in1020.7 mb 0.00 in0.0 mm 0.00 in/hr0.0 mm/hr 0.00 in0.0 mm
04:01 AM 24.8°F-4.0°C 16.2°F-8.8°C 69% 2.0 mph ENE3.2 kmh ENE 2.0 mph3.2 kmh 30.14 in1020.7 mb 0.00 in0.0 mm 0.00 in/hr0.0 mm/hr 0.00 in0.0 mm
04:00 AM 24.8°F-4.0°C 16.2°F-8.8°C 69% 2.0 mph ENE3.2 kmh ENE 2.0 mph3.2 kmh 30.14 in1020.7 mb 0.00 in0.0 mm 0.00 in/hr0.0 mm/hr 0.00 in0.0 mm
03:59 AM 25.0°F-3.9°C 16.3°F-8.7°C 69% 0.9 mph E1.4 kmh E 2.0 mph3.2 kmh 30.13 in1020.3 mb 0.00 in0.0 mm 0.00 in/hr0.0 mm/hr 0.00 in0.0 mm
03:58 AM 25.0°F-3.9°C 16.3°F-8.7°C 69% 0.9 mph SE1.4 kmh SE 6.9 mph11.1 kmh 30.13 in1020.3 mb 0.00 in0.0 mm 0.00 in/hr0.0 mm/hr 0.00 in0.0 mm
03:57 AM 25.0°F-3.9°C 16.5°F-8.6°C 70% 0.9 mph ENE1.4 kmh ENE 6.9 mph11.1 kmh 30.13 in1020.3 mb 0.00 in0.0 mm 0.00 in/hr0.0 mm/hr 0.00 in0.0 mm
03:56 AM 25.2°F-3.8°C 17.1°F-8.3°C 71% 0.9 mph ENE1.4 kmh ENE 2.9 mph4.7 kmh 30.13 in1020.3 mb 0.00 in0.0 mm 0.00 in/hr0.0 mm/hr 0.00 in0.0 mm
03:55 AM 25.2°F-3.8°C 17.1°F-8.3°C 71% 0.9 mph NE1.4 kmh NE 4.9 mph7.9 kmh 30.13 in1020.3 mb 0.00 in0.0 mm 0.00 in/hr0.0 mm/hr 0.00 in0.0 mm
03:54 AM 25.2°F-3.8°C 17.4°F-8.1°C 72% 0.9 mph NE1.4 kmh NE 0.9 mph1.4 kmh 30.13 in1020.3 mb 0.00 in0.0 mm 0.00 in/hr0.0 mm/hr 0.00 in0.0 mm
03:53 AM 25.3°F-3.7°C 18.0°F-7.8°C 73% 0.9 mph ESE1.4 kmh ESE 4.0 mph6.4 kmh 30.13 in1020.3 mb 0.00 in0.0 mm 0.00 in/hr0.0 mm/hr 0.00 in0.0 mm
03:52 AM 25.3°F-3.7°C 18.0°F-7.8°C 73% Calm Calm 2.0 mph3.2 kmh 30.13 in1020.3 mb 0.00 in0.0 mm 0.00 in/hr0.0 mm/hr 0.00 in0.0 mm
03:51 AM 25.3°F-3.7°C 18.0°F-7.8°C 73% Calm Calm 0.9 mph1.4 kmh 30.13 in1020.3 mb 0.00 in0.0 mm 0.00 in/hr0.0 mm/hr 0.00 in0.0 mm
03:50 AM 25.3°F-3.7°C 18.0°F-7.8°C 73% Calm Calm 0.9 mph1.4 kmh 30.13 in1020.3 mb 0.00 in0.0 mm 0.00 in/hr0.0 mm/hr 0.00 in0.0 mm
03:49 AM 25.3°F-3.7°C 18.0°F-7.8°C 73% Calm Calm 2.0 mph3.2 kmh 30.13 in1020.3 mb 0.00 in0.0 mm 0.00 in/hr0.0 mm/hr 0.00 in0.0 mm
03:48 AM 25.3°F-3.7°C 18.0°F-7.8°C 73% 0.9 mph ENE1.4 kmh ENE 2.0 mph3.2 kmh 30.13 in1020.3 mb 0.00 in0.0 mm 0.00 in/hr0.0 mm/hr 0.00 in0.0 mm
03:47 AM 25.3°F-3.7°C 18.1°F-7.7°C 74% 0.9 mph NE1.4 kmh NE -- 30.13 in1020.3 mb 0.00 in0.0 mm 0.00 in/hr0.0 mm/hr 0.00 in0.0 mm
03:46 AM 25.3°F-3.7°C 18.0°F-7.8°C 73% 0.9 mph ENE1.4 kmh ENE -- 30.13 in1020.3 mb 0.00 in0.0 mm 0.00 in/hr0.0 mm/hr 0.00 in0.0 mm
03:45 AM 25.3°F-3.7°C 18.0°F-7.8°C 73% 0.9 mph ENE1.4 kmh ENE 0.9 mph1.4 kmh 30.13 in1020.3 mb 0.00 in0.0 mm 0.00 in/hr0.0 mm/hr 0.00 in0.0 mm
03:44 AM 25.3°F-3.7°C 18.0°F-7.8°C 73% 0.9 mph NE1.4 kmh NE 0.9 mph1.4 kmh 30.12 in1020.0 mb 0.00 in0.0 mm 0.00 in/hr0.0 mm/hr 0.00 in0.0 mm
03:43 AM 25.3°F-3.7°C 18.0°F-7.8°C 73% 0.9 mph NE1.4 kmh NE -- 30.12 in1020.0 mb 0.00 in0.0 mm 0.00 in/hr0.0 mm/hr 0.00 in0.0 mm
03:42 AM 25.3°F-3.7°C 18.0°F-7.8°C 73% 0.9 mph NE1.4 kmh NE 0.9 mph1.4 kmh 30.12 in1020.0 mb 0.00 in0.0 mm 0.00 in/hr0.0 mm/hr 0.00 in0.0 mm
03:41 AM 25.3°F-3.7°C 18.0°F-7.8°C 73% 0.9 mph NE1.4 kmh NE 2.0 mph3.2 kmh 30.12 in1020.0 mb 0.00 in0.0 mm 0.00 in/hr0.0 mm/hr 0.00 in0.0 mm
03:40 AM 25.3°F-3.7°C 18.1°F-7.7°C 74% 0.9 mph ENE1.4 kmh ENE 2.0 mph3.2 kmh 30.12 in1020.0 mb 0.00 in0.0 mm 0.00 in/hr0.0 mm/hr 0.00 in0.0 mm
03:39 AM 25.3°F-3.7°C 18.1°F-7.7°C 74% Calm Calm 2.9 mph4.7 kmh 30.12 in1020.0 mb 0.00 in0.0 mm 0.00 in/hr0.0 mm/hr 0.00 in0.0 mm
03:38 AM 25.3°F-3.7°C 18.1°F-7.7°C 74% Calm Calm 3.0 mph4.8 kmh 30.12 in1020.0 mb 0.00 in0.0 mm 0.00 in/hr0.0 mm/hr 0.00 in0.0 mm
03:37 AM 25.3°F-3.7°C 18.1°F-7.7°C 74% Calm Calm 2.0 mph3.2 kmh 30.12 in1020.0 mb 0.00 in0.0 mm 0.00 in/hr0.0 mm/hr 0.00 in0.0 mm
03:36 AM 25.5°F-3.6°C 18.3°F-7.6°C 74% Calm Calm 0.9 mph1.4 kmh 30.12 in1020.0 mb 0.00 in0.0 mm 0.00 in/hr0.0 mm/hr 0.00 in0.0 mm
03:35 AM 25.5°F-3.6°C 18.3°F-7.6°C 74% Calm Calm -- 30.12 in1020.0 mb 0.00 in0.0 mm 0.00 in/hr0.0 mm/hr 0.00 in0.0 mm
03:34 AM 25.5°F-3.6°C 18.3°F-7.6°C 74% Calm Calm 0.9 mph1.4 kmh 30.12 in1020.0 mb 0.00 in0.0 mm 0.00 in/hr0.0 mm/hr 0.00 in0.0 mm
03:33 AM 25.5°F-3.6°C 18.3°F-7.6°C 74% 0.9 mph E1.4 kmh E -- 30.12 in1020.0 mb 0.00 in0.0 mm 0.00 in/hr0.0 mm/hr 0.00 in0.0 mm
03:32 AM 25.5°F-3.6°C 18.3°F-7.6°C 74% 0.9 mph E1.4 kmh E -- 30.12 in1020.0 mb 0.00 in0.0 mm 0.00 in/hr0.0 mm/hr 0.00 in0.0 mm
03:31 AM 25.5°F-3.6°C 18.3°F-7.6°C 74% 0.9 mph E1.4 kmh E -- 30.12 in1020.0 mb 0.00 in0.0 mm 0.00 in/hr0.0 mm/hr 0.00 in0.0 mm
03:30 AM 25.5°F-3.6°C 18.3°F-7.6°C 74% 0.9 mph E1.4 kmh E -- 30.12 in1020.0 mb 0.00 in0.0 mm 0.00 in/hr0.0 mm/hr 0.00 in0.0 mm
03:29 AM 25.5°F-3.6°C 18.3°F-7.6°C 74% 0.9 mph E1.4 kmh E 2.0 mph3.2 kmh 30.12 in1020.0 mb 0.00 in0.0 mm 0.00 in/hr0.0 mm/hr 0.00 in0.0 mm
03:28 AM 25.5°F-3.6°C 18.3°F-7.6°C 74% 0.9 mph E1.4 kmh E 2.0 mph3.2 kmh 30.12 in1020.0 mb 0.00 in0.0 mm 0.00 in/hr0.0 mm/hr 0.00 in0.0 mm
03:27 AM 25.5°F-3.6°C 18.3°F-7.6°C 74% 0.9 mph E1.4 kmh E 2.0 mph3.2 kmh 30.12 in1020.0 mb 0.00 in0.0 mm 0.00 in/hr0.0 mm/hr 0.00 in0.0 mm
03:26 AM 25.5°F-3.6°C 18.3°F-7.6°C 74% 0.9 mph E1.4 kmh E 2.0 mph3.2 kmh 30.12 in1020.0 mb 0.00 in0.0 mm 0.00 in/hr0.0 mm/hr 0.00 in0.0 mm
03:25 AM 25.5°F-3.6°C 18.3°F-7.6°C 74% Calm Calm 2.9 mph4.7 kmh 30.12 in1020.0 mb 0.00 in0.0 mm 0.00 in/hr0.0 mm/hr 0.00 in0.0 mm
03:24 AM 25.5°F-3.6°C 18.3°F-7.6°C 74% Calm Calm 2.9 mph4.7 kmh 30.12 in1020.0 mb 0.00 in0.0 mm 0.00 in/hr0.0 mm/hr 0.00 in0.0 mm
03:23 AM 25.5°F-3.6°C 18.1°F-7.7°C 73% Calm Calm -- 30.12 in1020.0 mb 0.00 in0.0 mm 0.00 in/hr0.0 mm/hr 0.00 in0.0 mm
03:22 AM 25.5°F-3.6°C 18.1°F-7.7°C 73% Calm Calm 0.9 mph1.4 kmh 30.12 in1020.0 mb 0.00 in0.0 mm 0.00 in/hr0.0 mm/hr 0.00 in0.0 mm
03:21 AM 25.5°F-3.6°C 18.3°F-7.6°C 74% Calm Calm 2.0 mph3.2 kmh 30.12 in1020.0 mb 0.00 in0.0 mm 0.00 in/hr0.0 mm/hr 0.00 in0.0 mm
03:20 AM 25.5°F-3.6°C 18.1°F-7.7°C 73% Calm Calm -- 30.12 in1020.0 mb 0.00 in0.0 mm 0.00 in/hr0.0 mm/hr 0.00 in0.0 mm
03:19 AM 25.5°F-3.6°C 18.1°F-7.7°C 73% Calm Calm -- 30.12 in1020.0 mb 0.00 in0.0 mm 0.00 in/hr0.0 mm/hr 0.00 in0.0 mm
03:18 AM 25.5°F-3.6°C 18.1°F-7.7°C 73% Calm Calm -- 30.12 in1020.0 mb 0.00 in0.0 mm 0.00 in/hr0.0 mm/hr 0.00 in0.0 mm
03:17 AM 25.5°F-3.6°C 18.1°F-7.7°C 73% Calm Calm -- 30.12 in1020.0 mb 0.00 in0.0 mm 0.00 in/hr0.0 mm/hr 0.00 in0.0 mm
03:16 AM 25.5°F-3.6°C 17.8°F-7.9°C 72% Calm Calm -- 30.12 in1020.0 mb 0.00 in0.0 mm 0.00 in/hr0.0 mm/hr 0.00 in0.0 mm
03:15 AM 25.5°F-3.6°C 17.8°F-7.9°C 72% Calm Calm 0.9 mph1.4 kmh 30.12 in1020.0 mb 0.00 in0.0 mm 0.00 in/hr0.0 mm/hr 0.00 in0.0 mm
03:14 AM 25.5°F-3.6°C 18.1°F-7.7°C 73% Calm Calm 0.9 mph1.4 kmh 30.11 in1019.6 mb 0.00 in0.0 mm 0.00 in/hr0.0 mm/hr 0.00 in0.0 mm
03:13 AM 25.5°F-3.6°C 18.1°F-7.7°C 73% Calm Calm 2.0 mph3.2 kmh 30.11 in1019.6 mb 0.00 in0.0 mm 0.00 in/hr0.0 mm/hr 0.00 in0.0 mm
03:12 AM 25.5°F-3.6°C 18.1°F-7.7°C 73% Calm Calm 2.0 mph3.2 kmh 30.11 in1019.6 mb 0.00 in0.0 mm 0.00 in/hr0.0 mm/hr 0.00 in0.0 mm
03:11 AM 25.5°F-3.6°C 18.1°F-7.7°C 73% Calm Calm 0.9 mph1.4 kmh 30.11 in1019.6 mb 0.00 in0.0 mm 0.00 in/hr0.0 mm/hr 0.00 in0.0 mm
03:10 AM 25.5°F-3.6°C 18.1°F-7.7°C 73% Calm Calm -- 30.11 in1019.6 mb 0.00 in0.0 mm 0.00 in/hr0.0 mm/hr 0.00 in0.0 mm
03:09 AM 25.5°F-3.6°C 17.8°F-7.9°C 72% Calm Calm -- 30.11 in1019.6 mb 0.00 in0.0 mm 0.00 in/hr0.0 mm/hr 0.00 in0.0 mm
03:08 AM 25.5°F-3.6°C 17.8°F-7.9°C 72% Calm Calm -- 30.11 in1019.6 mb 0.00 in0.0 mm 0.00 in/hr0.0 mm/hr 0.00 in0.0 mm
03:07 AM 25.5°F-3.6°C 17.8°F-7.9°C 72% Calm Calm -- 30.11 in1019.6 mb 0.00 in0.0 mm 0.00 in/hr0.0 mm/hr 0.00 in0.0 mm
03:06 AM 25.5°F-3.6°C 17.8°F-7.9°C 72% Calm Calm 0.9 mph1.4 kmh 30.11 in1019.6 mb 0.00 in0.0 mm 0.00 in/hr0.0 mm/hr 0.00 in0.0 mm
03:05 AM 25.5°F-3.6°C 17.8°F-7.9°C 72% Calm Calm 2.0 mph3.2 kmh 30.11 in1019.6 mb 0.00 in0.0 mm 0.00 in/hr0.0 mm/hr 0.00 in0.0 mm
03:04 AM 25.5°F-3.6°C 17.8°F-7.9°C 72% Calm Calm 2.0 mph3.2 kmh 30.11 in1019.6 mb 0.00 in0.0 mm 0.00 in/hr0.0 mm/hr 0.00 in0.0 mm
03:03 AM 25.5°F-3.6°C 18.1°F-7.7°C 73% Calm Calm 1.0 mph1.6 kmh 30.11 in1019.6 mb 0.00 in0.0 mm 0.00 in/hr0.0 mm/hr 0.00 in0.0 mm
03:02 AM 25.5°F-3.6°C 18.1°F-7.7°C 73% Calm Calm -- 30.11 in1019.6 mb 0.00 in0.0 mm 0.00 in/hr0.0 mm/hr 0.00 in0.0 mm
03:01 AM 25.5°F-3.6°C 18.1°F-7.7°C 73% Calm Calm -- 30.11 in1019.6 mb 0.00 in0.0 mm 0.00 in/hr0.0 mm/hr 0.00 in0.0 mm
03:00 AM 25.5°F-3.6°C 18.1°F-7.7°C 73% Calm Calm -- 30.11 in1019.6 mb 0.00 in0.0 mm 0.00 in/hr0.0 mm/hr 0.00 in0.0 mm
02:59 AM 25.5°F-3.6°C 18.1°F-7.7°C 73% Calm Calm -- 30.10 in1019.3 mb 0.00 in0.0 mm 0.00 in/hr0.0 mm/hr 0.00 in0.0 mm
02:58 AM 25.5°F-3.6°C 18.1°F-7.7°C 73% Calm Calm -- 30.10 in1019.3 mb 0.00 in0.0 mm 0.00 in/hr0.0 mm/hr 0.00 in0.0 mm
02:57 AM 25.5°F-3.6°C 17.8°F-7.9°C 72% Calm Calm -- 30.10 in1019.3 mb 0.00 in0.0 mm 0.00 in/hr0.0 mm/hr 0.00 in0.0 mm
02:56 AM 25.5°F-3.6°C 17.8°F-7.9°C 72% Calm Calm -- 30.10 in1019.3 mb 0.00 in0.0 mm 0.00 in/hr0.0 mm/hr 0.00 in0.0 mm
02:55 AM 25.5°F-3.6°C 17.8°F-7.9°C 72% Calm Calm -- 30.10 in1019.3 mb 0.00 in0.0 mm 0.00 in/hr0.0 mm/hr 0.00 in0.0 mm
02:54 AM 25.5°F-3.6°C 17.8°F-7.9°C 72% Calm Calm -- 30.10 in1019.3 mb 0.00 in0.0 mm 0.00 in/hr0.0 mm/hr 0.00 in0.0 mm
02:53 AM 25.5°F-3.6°C 17.8°F-7.9°C 72% Calm Calm -- 30.10 in1019.3 mb 0.00 in0.0 mm 0.00 in/hr0.0 mm/hr 0.00 in0.0 mm
02:52 AM 25.7°F-3.5°C 18.0°F-7.8°C 72% Calm Calm -- 30.10 in1019.3 mb 0.00 in0.0 mm 0.00 in/hr0.0 mm/hr 0.00 in0.0 mm
02:51 AM 25.7°F-3.5°C 18.0°F-7.8°C 72% 0.9 mph NNW1.4 kmh NNW -- 30.10 in1019.3 mb 0.00 in0.0 mm 0.00 in/hr0.0 mm/hr 0.00 in0.0 mm
02:50 AM 25.7°F-3.5°C 18.0°F-7.8°C 72% 0.9 mph NNW1.4 kmh NNW -- 30.10 in1019.3 mb 0.00 in0.0 mm 0.00 in/hr0.0 mm/hr 0.00 in0.0 mm
02:49 AM 25.7°F-3.5°C 18.0°F-7.8°C 72% 0.9 mph NNW1.4 kmh NNW -- 30.10 in1019.3 mb 0.00 in0.0 mm 0.00 in/hr0.0 mm/hr 0.00 in0.0 mm
02:48 AM 25.7°F-3.5°C 18.0°F-7.8°C 72% 0.9 mph NNW1.4 kmh NNW -- 30.10 in1019.3 mb 0.00 in0.0 mm 0.00 in/hr0.0 mm/hr 0.00 in0.0 mm
02:47 AM 25.7°F-3.5°C 18.0°F-7.8°C 72% 0.9 mph NNW1.4 kmh NNW 0.9 mph1.4 kmh 30.10 in1019.3 mb 0.00 in0.0 mm 0.00 in/hr0.0 mm/hr 0.00 in0.0 mm
02:46 AM 25.7°F-3.5°C 18.0°F-7.8°C 72% 0.9 mph NNW1.4 kmh NNW 2.0 mph3.2 kmh 30.10 in1019.3 mb 0.00 in0.0 mm 0.00 in/hr0.0 mm/hr 0.00 in0.0 mm
02:45 AM 25.7°F-3.5°C 18.0°F-7.8°C 72% 0.9 mph NNW1.4 kmh NNW 2.0 mph3.2 kmh 30.10 in1019.3 mb 0.00 in0.0 mm 0.00 in/hr0.0 mm/hr 0.00 in0.0 mm
02:44 AM 25.7°F-3.5°C 18.0°F-7.8°C 72% 0.9 mph NNW1.4 kmh NNW 2.9 mph4.7 kmh 30.10 in1019.3 mb 0.00 in0.0 mm 0.00 in/hr0.0 mm/hr 0.00 in0.0 mm
02:43 AM 25.7°F-3.5°C 18.0°F-7.8°C 72% 0.9 mph WNW1.4 kmh WNW 4.0 mph6.4 kmh 30.10 in1019.3 mb 0.00 in0.0 mm 0.00 in/hr0.0 mm/hr 0.00 in0.0 mm
02:42 AM 25.7°F-3.5°C 18.0°F-7.8°C 72% 0.9 mph NE1.4 kmh NE 4.9 mph7.9 kmh 30.10 in1019.3 mb 0.00 in0.0 mm 0.00 in/hr0.0 mm/hr 0.00 in0.0 mm
02:41 AM 25.7°F-3.5°C 18.0°F-7.8°C 72% 0.9 mph E1.4 kmh E 4.9 mph7.9 kmh 30.10 in1019.3 mb 0.00 in0.0 mm 0.00 in/hr0.0 mm/hr 0.00 in0.0 mm
02:40 AM 25.7°F-3.5°C 18.0°F-7.8°C 72% 0.9 mph NE1.4 kmh NE 2.9 mph4.7 kmh 30.10 in1019.3 mb 0.00 in0.0 mm 0.00 in/hr0.0 mm/hr 0.00 in0.0 mm
02:39 AM 25.7°F-3.5°C 18.0°F-7.8°C 72% 0.9 mph E1.4 kmh E 2.0 mph3.2 kmh 30.10 in1019.3 mb 0.00 in0.0 mm 0.00 in/hr0.0 mm/hr 0.00 in0.0 mm
02:38 AM 25.7°F-3.5°C 18.0°F-7.8°C 72% 0.9 mph E1.4 kmh E 2.0 mph3.2 kmh 30.10 in1019.3 mb 0.00 in0.0 mm 0.00 in/hr0.0 mm/hr 0.00 in0.0 mm
02:37 AM 25.7°F-3.5°C 18.0°F-7.8°C 72% 0.9 mph ENE1.4 kmh ENE 0.9 mph1.4 kmh 30.10 in1019.3 mb 0.00 in0.0 mm 0.00 in/hr0.0 mm/hr 0.00 in0.0 mm
02:36 AM 25.7°F-3.5°C 18.3°F-7.6°C 73% 0.9 mph NE1.4 kmh NE 2.0 mph3.2 kmh 30.10 in1019.3 mb 0.00 in0.0 mm 0.00 in/hr0.0 mm/hr 0.00 in0.0 mm
02:35 AM 25.9°F-3.4°C 18.5°F-7.5°C 73% 0.9 mph NE1.4 kmh NE 2.0 mph3.2 kmh 30.10 in1019.3 mb 0.00 in0.0 mm 0.00 in/hr0.0 mm/hr 0.00 in0.0 mm
02:34 AM 25.9°F-3.4°C 18.5°F-7.5°C 73% 0.9 mph NNW1.4 kmh NNW 2.0 mph3.2 kmh 30.10 in1019.3 mb 0.00 in0.0 mm 0.00 in/hr0.0 mm/hr 0.00 in0.0 mm
02:33 AM 25.9°F-3.4°C 18.5°F-7.5°C 73% 0.9 mph NW1.4 kmh NW 2.9 mph4.7 kmh 30.10 in1019.3 mb 0.00 in0.0 mm 0.00 in/hr0.0 mm/hr 0.00 in0.0 mm
02:32 AM 25.9°F-3.4°C 18.5°F-7.5°C 73% 0.9 mph N1.4 kmh N 2.0 mph3.2 kmh 30.10 in1019.3 mb 0.00 in0.0 mm 0.00 in/hr0.0 mm/hr 0.00 in0.0 mm
02:31 AM 25.9°F-3.4°C 18.5°F-7.5°C 73% 0.9 mph NW1.4 kmh NW 2.9 mph4.7 kmh 30.10 in1019.3 mb 0.00 in0.0 mm 0.00 in/hr0.0 mm/hr 0.00 in0.0 mm
02:30 AM 25.9°F-3.4°C 18.5°F-7.5°C 73% 0.9 mph W1.4 kmh W 2.0 mph3.2 kmh 30.10 in1019.3 mb 0.00 in0.0 mm 0.00 in/hr0.0 mm/hr 0.00 in0.0 mm
02:29 AM 25.9°F-3.4°C 18.5°F-7.5°C 73% 0.9 mph NW1.4 kmh NW 0.9 mph1.4 kmh 30.09 in1019.0 mb 0.00 in0.0 mm 0.00 in/hr0.0 mm/hr 0.00 in0.0 mm
02:28 AM 25.9°F-3.4°C 18.5°F-7.5°C 73% 0.9 mph N1.4 kmh N 4.9 mph7.9 kmh 30.09 in1019.0 mb 0.00 in0.0 mm 0.00 in/hr0.0 mm/hr 0.00 in0.0 mm
02:27 AM 25.9°F-3.4°C 18.5°F-7.5°C 73% 0.9 mph NNW1.4 kmh NNW 4.9 mph7.9 kmh 30.09 in1019.0 mb 0.00 in0.0 mm 0.00 in/hr0.0 mm/hr 0.00 in0.0 mm
02:26 AM 25.9°F-3.4°C 18.5°F-7.5°C 73% 0.9 mph ENE1.4 kmh ENE 0.9 mph1.4 kmh 30.09 in1019.0 mb 0.00 in0.0 mm 0.00 in/hr0.0 mm/hr 0.00 in0.0 mm
02:25 AM 25.9°F-3.4°C 18.5°F-7.5°C 73% 0.9 mph N1.4 kmh N 0.9 mph1.4 kmh 30.09 in1019.0 mb 0.00 in0.0 mm 0.00 in/hr0.0 mm/hr 0.00 in0.0 mm
02:24 AM 25.9°F-3.4°C 18.5°F-7.5°C 73% 0.9 mph N1.4 kmh N 2.0 mph3.2 kmh 30.09 in1019.0 mb 0.00 in0.0 mm 0.00 in/hr0.0 mm/hr 0.00 in0.0 mm
02:23 AM 25.9°F-3.4°C 18.5°F-7.5°C 73% 0.9 mph NNE1.4 kmh NNE 2.9 mph4.7 kmh 30.09 in1019.0 mb 0.00 in0.0 mm 0.00 in/hr0.0 mm/hr 0.00 in0.0 mm
02:22 AM 25.9°F-3.4°C 18.5°F-7.5°C 73% 0.9 mph NW1.4 kmh NW 2.9 mph4.7 kmh 30.09 in1019.0 mb 0.00 in0.0 mm 0.00 in/hr0.0 mm/hr 0.00 in0.0 mm
02:21 AM 25.9°F-3.4°C 18.5°F-7.5°C 73% 0.9 mph SSW1.4 kmh SSW 2.0 mph3.2 kmh 30.09 in1019.0 mb 0.00 in0.0 mm 0.00 in/hr0.0 mm/hr 0.00 in0.0 mm
02:20 AM 25.9°F-3.4°C 18.5°F-7.5°C 73% 2.0 mph SW3.2 kmh SW 2.0 mph3.2 kmh 30.09 in1019.0 mb 0.00 in0.0 mm 0.00 in/hr0.0 mm/hr 0.00 in0.0 mm
02:19 AM 25.9°F-3.4°C 18.5°F-7.5°C 73% 0.9 mph WSW1.4 kmh WSW 2.0 mph3.2 kmh 30.09 in1019.0 mb 0.00 in0.0 mm 0.00 in/hr0.0 mm/hr 0.00 in0.0 mm
02:18 AM 26.1°F-3.3°C 18.7°F-7.4°C 73% 0.9 mph WSW1.4 kmh WSW 2.0 mph3.2 kmh 30.09 in1019.0 mb 0.00 in0.0 mm 0.00 in/hr0.0 mm/hr 0.00 in0.0 mm
02:17 AM 25.9°F-3.4°C 18.5°F-7.5°C 73% 0.9 mph ENE1.4 kmh ENE 4.9 mph7.9 kmh 30.09 in1019.0 mb 0.00 in0.0 mm 0.00 in/hr0.0 mm/hr 0.00 in0.0 mm
02:16 AM 25.9°F-3.4°C 18.1°F-7.7°C 72% 0.9 mph ESE1.4 kmh ESE 4.9 mph7.9 kmh 30.09 in1019.0 mb 0.00 in0.0 mm 0.00 in/hr0.0 mm/hr 0.00 in0.0 mm
02:15 AM 25.9°F-3.4°C 18.1°F-7.7°C 72% 0.9 mph ESE1.4 kmh ESE 2.9 mph4.7 kmh 30.08 in1018.6 mb 0.00 in0.0 mm 0.00 in/hr0.0 mm/hr 0.00 in0.0 mm
02:14 AM 26.1°F-3.3°C 18.3°F-7.6°C 72% 0.9 mph NE1.4 kmh NE 4.9 mph7.9 kmh 30.08 in1018.6 mb 0.00 in0.0 mm 0.00 in/hr0.0 mm/hr 0.00 in0.0 mm
02:13 AM 26.1°F-3.3°C 18.7°F-7.4°C 73% 0.9 mph WSW1.4 kmh WSW -- 30.08 in1018.6 mb 0.00 in0.0 mm 0.00 in/hr0.0 mm/hr 0.00 in0.0 mm
02:12 AM 26.1°F-3.3°C 18.9°F-7.3°C 74% 0.9 mph NW1.4 kmh NW 7.0 mph11.3 kmh 30.08 in1018.6 mb 0.00 in0.0 mm 0.00 in/hr0.0 mm/hr 0.00 in0.0 mm
02:11 AM 26.1°F-3.3°C 18.9°F-7.3°C 74% 0.9 mph NE1.4 kmh NE 7.0 mph11.3 kmh 30.08 in1018.6 mb 0.00 in0.0 mm 0.00 in/hr0.0 mm/hr 0.00 in0.0 mm
02:10 AM 26.1°F-3.3°C 18.9°F-7.3°C 74% 0.9 mph NW1.4 kmh NW 0.9 mph1.4 kmh 30.08 in1018.6 mb 0.00 in0.0 mm 0.00 in/hr0.0 mm/hr 0.00 in0.0 mm
02:09 AM 26.1°F-3.3°C 19.2°F-7.1°C 75% 0.9 mph WNW1.4 kmh WNW -- 30.08 in1018.6 mb 0.00 in0.0 mm 0.00 in/hr0.0 mm/hr 0.00 in0.0 mm
02:08 AM 26.1°F-3.3°C 19.2°F-7.1°C 75% 0.9 mph WNW1.4 kmh WNW -- 30.08 in1018.6 mb 0.00 in0.0 mm 0.00 in/hr0.0 mm/hr 0.00 in0.0 mm
02:07 AM 26.1°F-3.3°C 19.2°F-7.1°C 75% 0.9 mph WNW1.4 kmh WNW 3.0 mph4.8 kmh 30.08 in1018.6 mb 0.00 in0.0 mm 0.00 in/hr0.0 mm/hr 0.00 in0.0 mm
02:06 AM 26.1°F-3.3°C 19.2°F-7.1°C 75% 0.9 mph WNW1.4 kmh WNW 3.0 mph4.8 kmh 30.08 in1018.6 mb 0.00 in0.0 mm 0.00 in/hr0.0 mm/hr 0.00 in0.0 mm
02:05 AM 26.1°F-3.3°C 19.2°F-7.1°C 75% 0.9 mph WNW1.4 kmh WNW 2.0 mph3.2 kmh 30.08 in1018.6 mb 0.00 in0.0 mm 0.00 in/hr0.0 mm/hr 0.00 in0.0 mm
02:04 AM 26.1°F-3.3°C 19.2°F-7.1°C 75% 2.0 mph NW3.2 kmh NW 0.9 mph1.4 kmh 30.08 in1018.6 mb 0.00 in0.0 mm 0.00 in/hr0.0 mm/hr 0.00 in0.0 mm
02:03 AM 26.1°F-3.3°C 19.2°F-7.1°C 75% 2.0 mph W3.2 kmh W 0.9 mph1.4 kmh 30.08 in1018.6 mb 0.00 in0.0 mm 0.00 in/hr0.0 mm/hr 0.00 in0.0 mm
02:02 AM 26.1°F-3.3°C 19.2°F-7.1°C 75% 2.0 mph WSW3.2 kmh WSW 0.9 mph1.4 kmh 30.08 in1018.6 mb 0.00 in0.0 mm 0.00 in/hr0.0 mm/hr 0.00 in0.0 mm
02:01 AM 26.1°F-3.3°C 19.2°F-7.1°C 75% 2.0 mph W3.2 kmh W 2.0 mph3.2 kmh 30.08 in1018.6 mb 0.00 in0.0 mm 0.00 in/hr0.0 mm/hr 0.00 in0.0 mm
02:00 AM 26.1°F-3.3°C 19.2°F-7.1°C 75% 2.0 mph NW3.2 kmh NW 0.9 mph1.4 kmh 30.07 in1018.3 mb 0.00 in0.0 mm 0.00 in/hr0.0 mm/hr 0.00 in0.0 mm
01:59 AM 26.1°F-3.3°C 19.2°F-7.1°C 75% 2.0 mph NW3.2 kmh NW 2.0 mph3.2 kmh 30.07 in1018.3 mb 0.00 in0.0 mm 0.00 in/hr0.0 mm/hr 0.00 in0.0 mm
01:58 AM 26.1°F-3.3°C 19.2°F-7.1°C 75% 2.0 mph ESE3.2 kmh ESE 2.0 mph3.2 kmh 30.07 in1018.3 mb 0.00 in0.0 mm 0.00 in/hr0.0 mm/hr 0.00 in0.0 mm
01:57 AM 26.1°F-3.3°C 19.2°F-7.1°C 75% 2.0 mph WNW3.2 kmh WNW 2.9 mph4.7 kmh 30.07 in1018.3 mb 0.00 in0.0 mm 0.00 in/hr0.0 mm/hr 0.00 in0.0 mm
01:56 AM 26.2°F-3.2°C 19.4°F-7.0°C 75% 2.0 mph NW3.2 kmh NW 6.0 mph9.7 kmh 30.07 in1018.3 mb 0.00 in0.0 mm 0.00 in/hr0.0 mm/hr 0.00 in0.0 mm
01:55 AM 26.2°F-3.2°C 19.4°F-7.0°C 75% 2.0 mph NW3.2 kmh NW 6.0 mph9.7 kmh 30.07 in1018.3 mb 0.00 in0.0 mm 0.00 in/hr0.0 mm/hr 0.00 in0.0 mm
01:54 AM 26.2°F-3.2°C 19.4°F-7.0°C 75% 2.0 mph NNW3.2 kmh NNW 4.0 mph6.4 kmh 30.07 in1018.3 mb 0.00 in0.0 mm 0.00 in/hr0.0 mm/hr 0.00 in0.0 mm
01:53 AM 26.2°F-3.2°C 19.4°F-7.0°C 75% 2.0 mph NW3.2 kmh NW 4.0 mph6.4 kmh 30.07 in1018.3 mb 0.00 in0.0 mm 0.00 in/hr0.0 mm/hr 0.00 in0.0 mm
01:52 AM 26.2°F-3.2°C 19.0°F-7.2°C 74% 2.0 mph WNW3.2 kmh WNW 2.9 mph4.7 kmh 30.07 in1018.3 mb 0.00 in0.0 mm 0.00 in/hr0.0 mm/hr 0.00 in0.0 mm
01:51 AM 26.4°F-3.1°C 19.2°F-7.1°C 74% 2.0 mph W3.2 kmh W 4.9 mph7.9 kmh 30.07 in1018.3 mb 0.00 in0.0 mm 0.00 in/hr0.0 mm/hr 0.00 in0.0 mm
01:50 AM 26.4°F-3.1°C 19.6°F-6.9°C 75% 0.9 mph NW1.4 kmh NW 4.0 mph6.4 kmh 30.07 in1018.3 mb 0.00 in0.0 mm 0.00 in/hr0.0 mm/hr 0.00 in0.0 mm
01:49 AM 26.4°F-3.1°C 19.2°F-7.1°C 74% 0.9 mph NW1.4 kmh NW 2.9 mph4.7 kmh 30.07 in1018.3 mb 0.00 in0.0 mm 0.00 in/hr0.0 mm/hr 0.00 in0.0 mm
01:48 AM 26.6°F-3.0°C 19.4°F-7.0°C 74% 2.0 mph WSW3.2 kmh WSW 2.0 mph3.2 kmh 30.07 in1018.3 mb 0.00 in0.0 mm 0.00 in/hr0.0 mm/hr 0.00 in0.0 mm
01:47 AM 26.6°F-3.0°C 19.0°F-7.2°C 73% 2.0 mph WSW3.2 kmh WSW 4.0 mph6.4 kmh 30.07 in1018.3 mb 0.00 in0.0 mm 0.00 in/hr0.0 mm/hr 0.00 in0.0 mm
01:46 AM 26.6°F-3.0°C 19.4°F-7.0°C 74% 2.0 mph W3.2 kmh W 2.9 mph4.7 kmh 30.07 in1018.3 mb 0.00 in0.0 mm 0.00 in/hr0.0 mm/hr 0.00 in0.0 mm
01:45 AM 26.8°F-2.9°C 19.6°F-6.9°C 74% 2.0 mph NW3.2 kmh NW 2.9 mph4.7 kmh 30.05 in1017.6 mb 0.00 in0.0 mm 0.00 in/hr0.0 mm/hr 0.00 in0.0 mm
01:44 AM 26.8°F-2.9°C 19.6°F-6.9°C 74% 2.0 mph NW3.2 kmh NW 2.9 mph4.7 kmh 30.05 in1017.6 mb 0.00 in0.0 mm 0.00 in/hr0.0 mm/hr 0.00 in0.0 mm
01:43 AM 26.8°F-2.9°C 19.6°F-6.9°C 74% 2.0 mph NW3.2 kmh NW 2.9 mph4.7 kmh 30.05 in1017.6 mb 0.00 in0.0 mm 0.00 in/hr0.0 mm/hr 0.00 in0.0 mm
01:42 AM 26.8°F-2.9°C 19.6°F-6.9°C 74% 2.9 mph NE4.7 kmh NE 2.9 mph4.7 kmh 30.05 in1017.6 mb 0.00 in0.0 mm 0.00 in/hr0.0 mm/hr 0.00 in0.0 mm
01:41 AM 27.0°F-2.8°C 19.8°F-6.8°C 74% 2.9 mph NE4.7 kmh NE 2.9 mph4.7 kmh 30.05 in1017.6 mb 0.00 in0.0 mm 0.00 in/hr0.0 mm/hr 0.00 in0.0 mm
01:40 AM 27.0°F-2.8°C 19.8°F-6.8°C 74% 2.9 mph E4.7 kmh E 4.9 mph7.9 kmh 30.05 in1017.6 mb 0.00 in0.0 mm 0.00 in/hr0.0 mm/hr 0.00 in0.0 mm
01:39 AM 27.0°F-2.8°C 19.8°F-6.8°C 74% 4.0 mph E6.4 kmh E 4.9 mph7.9 kmh 30.05 in1017.6 mb 0.00 in0.0 mm 0.00 in/hr0.0 mm/hr 0.00 in0.0 mm
01:38 AM 27.0°F-2.8°C 19.8°F-6.8°C 74% 4.0 mph NE6.4 kmh NE 2.9 mph4.7 kmh 30.05 in1017.6 mb 0.00 in0.0 mm 0.00 in/hr0.0 mm/hr 0.00 in0.0 mm
01:37 AM 27.1°F-2.7°C 19.9°F-6.7°C 74% 4.0 mph NE6.4 kmh NE 4.0 mph6.4 kmh 30.05 in1017.6 mb 0.00 in0.0 mm 0.00 in/hr0.0 mm/hr 0.00 in0.0 mm
01:36 AM 27.1°F-2.7°C 19.9°F-6.7°C 74% 4.9 mph NE7.9 kmh NE 4.9 mph7.9 kmh 30.05 in1017.6 mb 0.00 in0.0 mm 0.00 in/hr0.0 mm/hr 0.00 in0.0 mm
01:35 AM 27.1°F-2.7°C 19.6°F-6.9°C 73% 4.9 mph E7.9 kmh E 4.9 mph7.9 kmh 30.05 in1017.6 mb 0.00 in0.0 mm 0.00 in/hr0.0 mm/hr 0.00 in0.0 mm
01:34 AM 27.1°F-2.7°C 19.6°F-6.9°C 73% 4.9 mph ENE7.9 kmh ENE 4.9 mph7.9 kmh 30.05 in1017.6 mb 0.00 in0.0 mm 0.00 in/hr0.0 mm/hr 0.00 in0.0 mm
01:33 AM 27.1°F-2.7°C 19.6°F-6.9°C 73% 6.0 mph NE9.7 kmh NE 12.1 mph19.5 kmh 30.05 in1017.6 mb 0.00 in0.0 mm 0.00 in/hr0.0 mm/hr 0.00 in0.0 mm
01:32 AM 27.3°F-2.6°C 19.8°F-6.8°C 73% 6.0 mph NE9.7 kmh NE 12.1 mph19.5 kmh 30.05 in1017.6 mb 0.00 in0.0 mm 0.00 in/hr0.0 mm/hr 0.00 in0.0 mm
01:31 AM 27.3°F-2.6°C 19.8°F-6.8°C 73% 6.0 mph ENE9.7 kmh ENE 6.0 mph9.7 kmh 30.05 in1017.6 mb 0.00 in0.0 mm 0.00 in/hr0.0 mm/hr 0.00 in0.0 mm
01:30 AM 27.3°F-2.6°C 19.8°F-6.8°C 73% 6.0 mph NE9.7 kmh NE 10.1 mph16.3 kmh 30.04 in1017.3 mb 0.00 in0.0 mm 0.00 in/hr0.0 mm/hr 0.00 in0.0 mm
01:29 AM 27.3°F-2.6°C 19.8°F-6.8°C 73% 6.0 mph ENE9.7 kmh ENE 8.1 mph13.0 kmh 30.04 in1017.3 mb 0.00 in0.0 mm 0.00 in/hr0.0 mm/hr 0.00 in0.0 mm
01:28 AM 27.3°F-2.6°C 19.8°F-6.8°C 73% 6.0 mph NNE9.7 kmh NNE 8.9 mph14.3 kmh 30.04 in1017.3 mb 0.00 in0.0 mm 0.00 in/hr0.0 mm/hr 0.00 in0.0 mm
01:27 AM 27.3°F-2.6°C 19.8°F-6.8°C 73% 6.0 mph NE9.7 kmh NE 12.1 mph19.5 kmh 30.04 in1017.3 mb 0.00 in0.0 mm 0.00 in/hr0.0 mm/hr 0.00 in0.0 mm
01:26 AM 27.3°F-2.6°C 20.1°F-6.6°C 74% 6.0 mph E9.7 kmh E 12.1 mph19.5 kmh 30.04 in1017.3 mb 0.00 in0.0 mm 0.00 in/hr0.0 mm/hr 0.00 in0.0 mm
01:25 AM 27.3°F-2.6°C 20.1°F-6.6°C 74% 6.0 mph SE9.7 kmh SE 13.0 mph20.9 kmh 30.04 in1017.3 mb 0.00 in0.0 mm 0.00 in/hr0.0 mm/hr 0.00 in0.0 mm
01:24 AM 27.3°F-2.6°C 20.1°F-6.6°C 74% 6.0 mph E9.7 kmh E 13.0 mph20.9 kmh 30.04 in1017.3 mb 0.00 in0.0 mm 0.00 in/hr0.0 mm/hr 0.00 in0.0 mm
01:23 AM 27.3°F-2.6°C 19.8°F-6.8°C 73% 6.0 mph ENE9.7 kmh ENE 14.1 mph22.7 kmh 30.04 in1017.3 mb 0.00 in0.0 mm 0.00 in/hr0.0 mm/hr 0.00 in0.0 mm
01:22 AM 27.5°F-2.5°C 20.3°F-6.5°C 74% 6.0 mph ENE9.7 kmh ENE 14.1 mph22.7 kmh 30.04 in1017.3 mb 0.00 in0.0 mm 0.00 in/hr0.0 mm/hr 0.00 in0.0 mm
01:21 AM 27.5°F-2.5°C 20.3°F-6.5°C 74% 6.0 mph ENE9.7 kmh ENE 8.1 mph13.0 kmh 30.04 in1017.3 mb 0.00 in0.0 mm 0.00 in/hr0.0 mm/hr 0.00 in0.0 mm
01:20 AM 27.5°F-2.5°C 20.3°F-6.5°C 74% 6.0 mph E9.7 kmh E 10.1 mph16.3 kmh 30.04 in1017.3 mb 0.00 in0.0 mm 0.00 in/hr0.0 mm/hr 0.00 in0.0 mm
01:19 AM 27.7°F-2.4°C 20.5°F-6.4°C 74% 6.0 mph ENE9.7 kmh ENE 8.9 mph14.3 kmh 30.04 in1017.3 mb 0.00 in0.0 mm 0.00 in/hr0.0 mm/hr 0.00 in0.0 mm
01:18 AM 27.7°F-2.4°C 20.1°F-6.6°C 73% 6.0 mph ENE9.7 kmh ENE 8.9 mph14.3 kmh 30.04 in1017.3 mb 0.00 in0.0 mm 0.00 in/hr0.0 mm/hr 0.00 in0.0 mm
01:17 AM 27.9°F-2.3°C 20.7°F-6.3°C 74% 6.0 mph NE9.7 kmh NE 8.9 mph14.3 kmh 30.04 in1017.3 mb 0.00 in0.0 mm 0.00 in/hr0.0 mm/hr 0.00 in0.0 mm
01:16 AM 27.9°F-2.3°C 20.3°F-6.5°C 73% 6.9 mph NW11.1 kmh NW 6.9 mph11.1 kmh 30.04 in1017.3 mb 0.00 in0.0 mm 0.00 in/hr0.0 mm/hr 0.00 in0.0 mm
01:15 AM 27.9°F-2.3°C 20.3°F-6.5°C 73% 6.9 mph NE11.1 kmh NE 11.0 mph17.7 kmh 30.03 in1016.9 mb 0.00 in0.0 mm 0.00 in/hr0.0 mm/hr 0.00 in0.0 mm
01:14 AM 27.9°F-2.3°C 20.3°F-6.5°C 73% 6.9 mph ENE11.1 kmh ENE 8.9 mph14.3 kmh 30.03 in1016.9 mb 0.00 in0.0 mm 0.00 in/hr0.0 mm/hr 0.00 in0.0 mm
01:13 AM 28.0°F-2.2°C 20.5°F-6.4°C 73% 6.9 mph E11.1 kmh E 11.0 mph17.7 kmh 30.03 in1016.9 mb 0.00 in0.0 mm 0.00 in/hr0.0 mm/hr 0.00 in0.0 mm
01:12 AM 28.0°F-2.2°C 20.5°F-6.4°C 73% 6.9 mph ENE11.1 kmh ENE 14.1 mph22.7 kmh 30.03 in1016.9 mb 0.00 in0.0 mm 0.00 in/hr0.0 mm/hr 0.00 in0.0 mm
01:11 AM 28.0°F-2.2°C 20.5°F-6.4°C 73% 6.0 mph NE9.7 kmh NE 14.1 mph22.7 kmh 30.03 in1016.9 mb 0.00 in0.0 mm 0.00 in/hr0.0 mm/hr 0.00 in0.0 mm
01:10 AM 28.2°F-2.1°C 20.7°F-6.3°C 73% 6.9 mph E11.1 kmh E 11.0 mph17.7 kmh 30.03 in1016.9 mb 0.00 in0.0 mm 0.00 in/hr0.0 mm/hr 0.00 in0.0 mm
01:09 AM 28.2°F-2.1°C 20.3°F-6.5°C 72% 6.9 mph E11.1 kmh E 13.0 mph20.9 kmh 30.03 in1016.9 mb 0.00 in0.0 mm 0.00 in/hr0.0 mm/hr 0.00 in0.0 mm
01:08 AM 28.2°F-2.1°C 20.7°F-6.3°C 73% 6.9 mph ENE11.1 kmh ENE 11.0 mph17.7 kmh 30.03 in1016.9 mb 0.00 in0.0 mm 0.00 in/hr0.0 mm/hr 0.00 in0.0 mm
01:07 AM 28.4°F-2.0°C 20.5°F-6.4°C 72% 6.9 mph NE11.1 kmh NE 11.0 mph17.7 kmh 30.03 in1016.9 mb 0.00 in0.0 mm 0.00 in/hr0.0 mm/hr 0.00 in0.0 mm
01:06 AM 28.4°F-2.0°C 20.5°F-6.4°C 72% 6.9 mph NE11.1 kmh NE 11.0 mph17.7 kmh 30.03 in1016.9 mb 0.00 in0.0 mm 0.00 in/hr0.0 mm/hr 0.00 in0.0 mm
01:05 AM 28.6°F-1.9°C 20.7°F-6.3°C 72% 6.9 mph ENE11.1 kmh ENE 8.9 mph14.3 kmh 30.03 in1016.9 mb 0.00 in0.0 mm 0.00 in/hr0.0 mm/hr 0.00 in0.0 mm
01:04 AM 28.6°F-1.9°C 20.7°F-6.3°C 72% 6.9 mph NE11.1 kmh NE 12.1 mph19.5 kmh 30.03 in1016.9 mb 0.00 in0.0 mm 0.00 in/hr0.0 mm/hr 0.00 in0.0 mm
01:03 AM 28.6°F-1.9°C 20.7°F-6.3°C 72% 6.9 mph NW11.1 kmh NW 10.1 mph16.3 kmh 30.03 in1016.9 mb 0.00 in0.0 mm 0.00 in/hr0.0 mm/hr 0.00 in0.0 mm
01:02 AM 28.8°F-1.8°C 20.5°F-6.4°C 71% 6.9 mph E11.1 kmh E 12.1 mph19.5 kmh 30.03 in1016.9 mb 0.00 in0.0 mm 0.00 in/hr0.0 mm/hr 0.00 in0.0 mm
01:01 AM 28.8°F-1.8°C 20.5°F-6.4°C 71% 6.9 mph N11.1 kmh N 12.1 mph19.5 kmh 30.03 in1016.9 mb 0.00 in0.0 mm 0.00 in/hr0.0 mm/hr 0.00 in0.0 mm
01:00 AM 28.9°F-1.7°C 20.7°F-6.3°C 71% 6.9 mph NW11.1 kmh NW 11.0 mph17.7 kmh 30.03 in1016.9 mb 0.00 in0.0 mm 0.00 in/hr0.0 mm/hr 0.00 in0.0 mm
12:59 AM 28.9°F-1.7°C 20.7°F-6.3°C 71% 6.9 mph NE11.1 kmh NE 12.1 mph19.5 kmh 30.03 in1016.9 mb 0.00 in0.0 mm 0.00 in/hr0.0 mm/hr 0.00 in0.0 mm
12:58 AM 28.9°F-1.7°C 21.0°F-6.1°C 72% 6.9 mph NE11.1 kmh NE 17.0 mph27.4 kmh 30.03 in1016.9 mb 0.00 in0.0 mm 0.00 in/hr0.0 mm/hr 0.00 in0.0 mm
12:57 AM 29.1°F-1.6°C 21.2°F-6.0°C 72% 6.0 mph E9.7 kmh E 10.1 mph16.3 kmh 30.03 in1016.9 mb 0.00 in0.0 mm 0.00 in/hr0.0 mm/hr 0.00 in0.0 mm
12:56 AM 29.1°F-1.6°C 21.2°F-6.0°C 72% 6.0 mph NE9.7 kmh NE 16.1 mph25.9 kmh 30.03 in1016.9 mb 0.00 in0.0 mm 0.00 in/hr0.0 mm/hr 0.00 in0.0 mm
12:55 AM 29.1°F-1.6°C 21.6°F-5.8°C 73% 6.0 mph N9.7 kmh N 13.0 mph20.9 kmh 30.03 in1016.9 mb 0.00 in0.0 mm 0.00 in/hr0.0 mm/hr 0.00 in0.0 mm
12:54 AM 29.1°F-1.6°C 21.6°F-5.8°C 73% 6.9 mph N11.1 kmh N 10.1 mph16.3 kmh 30.03 in1016.9 mb 0.00 in0.0 mm 0.00 in/hr0.0 mm/hr 0.00 in0.0 mm
12:53 AM 29.3°F-1.5°C 21.7°F-5.7°C 73% 6.9 mph NE11.1 kmh NE 12.1 mph19.5 kmh 30.03 in1016.9 mb 0.00 in0.0 mm 0.00 in/hr0.0 mm/hr 0.00 in0.0 mm
12:52 AM 29.5°F-1.4°C 22.3°F-5.4°C 74% 6.9 mph E11.1 kmh E 16.0 mph25.7 kmh 30.03 in1016.9 mb 0.00 in0.0 mm 0.00 in/hr0.0 mm/hr 0.00 in0.0 mm
12:51 AM 29.5°F-1.4°C 22.3°F-5.4°C 74% 6.9 mph E11.1 kmh E 16.0 mph25.7 kmh 30.03 in1016.9 mb 0.00 in0.0 mm 0.00 in/hr0.0 mm/hr 0.00 in0.0 mm
12:50 AM 29.5°F-1.4°C 22.3°F-5.4°C 74% 8.1 mph NE13.0 kmh NE 6.9 mph11.1 kmh 30.03 in1016.9 mb 0.00 in0.0 mm 0.00 in/hr0.0 mm/hr 0.00 in0.0 mm
12:49 AM 29.7°F-1.3°C 22.1°F-5.5°C 73% 8.1 mph NE13.0 kmh NE 8.9 mph14.3 kmh 30.03 in1016.9 mb 0.00 in0.0 mm 0.00 in/hr0.0 mm/hr 0.00 in0.0 mm
12:48 AM 29.7°F-1.3°C 22.1°F-5.5°C 73% 8.1 mph ENE13.0 kmh ENE 8.9 mph14.3 kmh 30.03 in1016.9 mb 0.00 in0.0 mm 0.00 in/hr0.0 mm/hr 0.00 in0.0 mm
12:47 AM 29.7°F-1.3°C 22.1°F-5.5°C 73% 8.1 mph NNE13.0 kmh NNE 8.9 mph14.3 kmh 30.03 in1016.9 mb 0.00 in0.0 mm 0.00 in/hr0.0 mm/hr 0.00 in0.0 mm
12:46 AM 29.8°F-1.2°C 22.3°F-5.4°C 73% 8.1 mph ENE13.0 kmh ENE 11.0 mph17.7 kmh 30.03 in1016.9 mb 0.00 in0.0 mm 0.00 in/hr0.0 mm/hr 0.00 in0.0 mm
12:45 AM 29.8°F-1.2°C 22.3°F-5.4°C 73% 8.1 mph NE13.0 kmh NE 15.0 mph24.1 kmh 30.03 in1016.9 mb 0.00 in0.0 mm 0.00 in/hr0.0 mm/hr 0.00 in0.0 mm
12:44 AM 29.8°F-1.2°C 22.3°F-5.4°C 73% 8.1 mph NNE13.0 kmh NNE 13.0 mph20.9 kmh 30.03 in1016.9 mb 0.00 in0.0 mm 0.00 in/hr0.0 mm/hr 0.00 in0.0 mm
12:43 AM 29.8°F-1.2°C 22.3°F-5.4°C 73% 6.9 mph NE11.1 kmh NE 12.1 mph19.5 kmh 30.03 in1016.9 mb 0.00 in0.0 mm 0.00 in/hr0.0 mm/hr 0.00 in0.0 mm
12:42 AM 30.0°F-1.1°C 22.5°F-5.3°C 73% 6.9 mph NE11.1 kmh NE 16.1 mph25.9 kmh 30.03 in1016.9 mb 0.00 in0.0 mm 0.00 in/hr0.0 mm/hr 0.00 in0.0 mm
12:41 AM 30.0°F-1.1°C 22.5°F-5.3°C 73% 6.9 mph NNE11.1 kmh NNE 16.1 mph25.9 kmh 30.03 in1016.9 mb 0.00 in0.0 mm 0.00 in/hr0.0 mm/hr 0.00 in0.0 mm
12:40 AM 30.0°F-1.1°C 22.5°F-5.3°C 73% 6.0 mph ENE9.7 kmh ENE 14.1 mph22.7 kmh 30.03 in1016.9 mb 0.00 in0.0 mm 0.00 in/hr0.0 mm/hr 0.00 in0.0 mm
12:39 AM 30.2°F-1.0°C 22.3°F-5.4°C 72% 6.0 mph NE9.7 kmh NE 12.1 mph19.5 kmh 30.03 in1016.9 mb 0.00 in0.0 mm 0.00 in/hr0.0 mm/hr 0.00 in0.0 mm
12:38 AM 30.2°F-1.0°C 22.6°F-5.2°C 73% 6.0 mph NNE9.7 kmh NNE 11.0 mph17.7 kmh 30.03 in1016.9 mb 0.00 in0.0 mm 0.00 in/hr0.0 mm/hr 0.00 in0.0 mm
12:37 AM 30.4°F-0.9°C 22.8°F-5.1°C 73% 6.0 mph NNW9.7 kmh NNW 12.1 mph19.5 kmh 30.03 in1016.9 mb 0.00 in0.0 mm 0.00 in/hr0.0 mm/hr 0.00 in0.0 mm
12:36 AM 30.4°F-0.9°C 22.8°F-5.1°C 73% 6.0 mph NE9.7 kmh NE 12.1 mph19.5 kmh 30.03 in1016.9 mb 0.00 in0.0 mm 0.00 in/hr0.0 mm/hr 0.00 in0.0 mm
12:35 AM 30.4°F-0.9°C 22.8°F-5.1°C 73% 6.0 mph NE9.7 kmh NE 11.0 mph17.7 kmh 30.03 in1016.9 mb 0.00 in0.0 mm 0.00 in/hr0.0 mm/hr 0.00 in0.0 mm
12:34 AM 30.4°F-0.9°C 23.2°F-4.9°C 74% 6.0 mph ENE9.7 kmh ENE 10.1 mph16.3 kmh 30.03 in1016.9 mb 0.00 in0.0 mm 0.00 in/hr0.0 mm/hr 0.00 in0.0 mm
12:33 AM 30.4°F-0.9°C 22.8°F-5.1°C 73% 6.0 mph N9.7 kmh N 11.0 mph17.7 kmh 30.03 in1016.9 mb 0.00 in0.0 mm 0.00 in/hr0.0 mm/hr 0.00 in0.0 mm
12:32 AM 30.6°F-0.8°C 23.2°F-4.9°C 74% 6.0 mph NNE9.7 kmh NNE 8.9 mph14.3 kmh 30.03 in1016.9 mb 0.00 in0.0 mm 0.00 in/hr0.0 mm/hr 0.00 in0.0 mm
12:31 AM 30.6°F-0.8°C 23.2°F-4.9°C 74% 6.0 mph NW9.7 kmh NW 8.9 mph14.3 kmh 30.03 in1016.9 mb 0.00 in0.0 mm 0.00 in/hr0.0 mm/hr 0.00 in0.0 mm
12:30 AM 30.6°F-0.8°C 23.2°F-4.9°C 74% 6.0 mph NW9.7 kmh NW 10.1 mph16.3 kmh 30.01 in1016.3 mb 0.00 in0.0 mm 0.00 in/hr0.0 mm/hr 0.00 in0.0 mm
12:29 AM 30.7°F-0.7°C 23.4°F-4.8°C 74% 6.0 mph N9.7 kmh N 6.0 mph9.7 kmh 30.01 in1016.3 mb 0.00 in0.0 mm 0.00 in/hr0.0 mm/hr 0.00 in0.0 mm
12:28 AM 30.7°F-0.7°C 23.4°F-4.8°C 74% 6.0 mph NE9.7 kmh NE 8.1 mph13.0 kmh 30.01 in1016.3 mb 0.00 in0.0 mm 0.00 in/hr0.0 mm/hr 0.00 in0.0 mm
12:27 AM 30.7°F-0.7°C 23.4°F-4.8°C 74% 6.0 mph E9.7 kmh E 6.9 mph11.1 kmh 30.01 in1016.3 mb 0.00 in0.0 mm 0.00 in/hr0.0 mm/hr 0.00 in0.0 mm
12:26 AM 30.7°F-0.7°C 23.4°F-4.8°C 74% 6.0 mph ENE9.7 kmh ENE 12.1 mph19.5 kmh 30.01 in1016.3 mb 0.00 in0.0 mm 0.00 in/hr0.0 mm/hr 0.00 in0.0 mm
12:25 AM 30.9°F-0.6°C 23.5°F-4.7°C 74% 4.9 mph NW7.9 kmh NW 10.1 mph16.3 kmh 30.01 in1016.3 mb 0.00 in0.0 mm 0.00 in/hr0.0 mm/hr 0.00 in0.0 mm
12:24 AM 30.9°F-0.6°C 23.5°F-4.7°C 74% 4.9 mph NNE7.9 kmh NNE 17.0 mph27.4 kmh 30.01 in1016.3 mb 0.00 in0.0 mm 0.00 in/hr0.0 mm/hr 0.00 in0.0 mm
12:23 AM 30.9°F-0.6°C 23.9°F-4.5°C 75% 4.0 mph NNW6.4 kmh NNW 16.1 mph25.9 kmh 30.01 in1016.3 mb 0.00 in0.0 mm 0.00 in/hr0.0 mm/hr 0.00 in0.0 mm
12:22 AM 30.9°F-0.6°C 23.9°F-4.5°C 75% 4.0 mph NNE6.4 kmh NNE 12.0 mph19.3 kmh 30.01 in1016.3 mb 0.00 in0.0 mm 0.00 in/hr0.0 mm/hr 0.00 in0.0 mm
12:21 AM 30.9°F-0.6°C 23.9°F-4.5°C 75% 4.0 mph NE6.4 kmh NE 11.0 mph17.7 kmh 30.01 in1016.3 mb 0.00 in0.0 mm 0.00 in/hr0.0 mm/hr 0.00 in0.0 mm
12:20 AM 30.9°F-0.6°C 23.9°F-4.5°C 75% 4.0 mph NW6.4 kmh NW 6.0 mph9.7 kmh 30.01 in1016.3 mb 0.00 in0.0 mm 0.00 in/hr0.0 mm/hr 0.00 in0.0 mm
12:19 AM 30.9°F-0.6°C 23.9°F-4.5°C 75% 4.0 mph ENE6.4 kmh ENE 8.1 mph13.0 kmh 30.01 in1016.3 mb 0.00 in0.0 mm 0.00 in/hr0.0 mm/hr 0.00 in0.0 mm
12:18 AM 31.1°F-0.5°C 24.1°F-4.4°C 75% 4.0 mph ENE6.4 kmh ENE 8.1 mph13.0 kmh 30.01 in1016.3 mb 0.00 in0.0 mm 0.00 in/hr0.0 mm/hr 0.00 in0.0 mm
12:17 AM 31.3°F-0.4°C 24.3°F-4.3°C 75% 4.0 mph NE6.4 kmh NE 6.9 mph11.1 kmh 30.01 in1016.3 mb 0.00 in0.0 mm 0.00 in/hr0.0 mm/hr 0.00 in0.0 mm
12:16 AM 31.3°F-0.4°C 24.3°F-4.3°C 75% 4.0 mph E6.4 kmh E 6.0 mph9.7 kmh 30.01 in1016.3 mb 0.00 in0.0 mm 0.00 in/hr0.0 mm/hr 0.00 in0.0 mm
12:15 AM 31.3°F-0.4°C 24.3°F-4.3°C 75% 4.9 mph E7.9 kmh E 4.9 mph7.9 kmh 30.01 in1016.3 mb 0.00 in0.0 mm 0.00 in/hr0.0 mm/hr 0.00 in0.0 mm
12:14 AM 31.3°F-0.4°C 24.3°F-4.3°C 75% 6.0 mph NNW9.7 kmh NNW 4.9 mph7.9 kmh 30.01 in1016.3 mb 0.00 in0.0 mm 0.00 in/hr0.0 mm/hr 0.00 in0.0 mm
12:13 AM 31.3°F-0.4°C 23.9°F-4.5°C 74% 6.0 mph NE9.7 kmh NE 8.9 mph14.3 kmh 30.01 in1016.3 mb 0.00 in0.0 mm 0.00 in/hr0.0 mm/hr 0.00 in0.0 mm
12:12 AM 31.3°F-0.4°C 23.9°F-4.5°C 74% 6.0 mph ENE9.7 kmh ENE 10.1 mph16.3 kmh 30.01 in1016.3 mb 0.00 in0.0 mm 0.00 in/hr0.0 mm/hr 0.00 in0.0 mm
12:11 AM 31.3°F-0.4°C 24.3°F-4.3°C 75% 6.0 mph N9.7 kmh N 6.9 mph11.1 kmh 30.01 in1016.3 mb 0.00 in0.0 mm 0.00 in/hr0.0 mm/hr 0.00 in0.0 mm
12:10 AM 31.3°F-0.4°C 23.9°F-4.5°C 74% 6.0 mph NE9.7 kmh NE 8.1 mph13.0 kmh 30.01 in1016.3 mb 0.00 in0.0 mm 0.00 in/hr0.0 mm/hr 0.00 in0.0 mm
12:09 AM 31.5°F-0.3°C 24.1°F-4.4°C 74% 4.9 mph NE7.9 kmh NE 8.9 mph14.3 kmh 30.01 in1016.3 mb 0.00 in0.0 mm 0.00 in/hr0.0 mm/hr 0.00 in0.0 mm
12:08 AM 31.5°F-0.3°C 24.1°F-4.4°C 74% 4.9 mph NE7.9 kmh NE 10.1 mph16.3 kmh 30.01 in1016.3 mb 0.00 in0.0 mm 0.00 in/hr0.0 mm/hr 0.00 in0.0 mm
12:07 AM 31.5°F-0.3°C 24.1°F-4.4°C 74% 4.9 mph N7.9 kmh N 11.0 mph17.7 kmh 30.01 in1016.3 mb 0.00 in0.0 mm 0.00 in/hr0.0 mm/hr 0.00 in0.0 mm
12:06 AM 31.5°F-0.3°C 24.1°F-4.4°C 74% 4.9 mph NNE7.9 kmh NNE 11.0 mph17.7 kmh 30.01 in1016.3 mb 0.00 in0.0 mm 0.00 in/hr0.0 mm/hr 0.00 in0.0 mm
12:05 AM 31.3°F-0.4°C 23.9°F-4.5°C 74% 4.0 mph NNW6.4 kmh NNW 11.0 mph17.7 kmh 30.01 in1016.3 mb 0.00 in0.0 mm 0.00 in/hr0.0 mm/hr 0.00 in0.0 mm
12:04 AM 31.3°F-0.4°C 23.9°F-4.5°C 74% 4.0 mph NE6.4 kmh NE 10.1 mph16.3 kmh 30.01 in1016.3 mb 0.00 in0.0 mm 0.00 in/hr0.0 mm/hr 0.00 in0.0 mm
12:03 AM 31.3°F-0.4°C 23.9°F-4.5°C 74% 4.0 mph NNW6.4 kmh NNW 11.0 mph17.7 kmh 30.01 in1016.3 mb 0.00 in0.0 mm 0.00 in/hr0.0 mm/hr 0.00 in0.0 mm
12:02 AM 31.3°F-0.4°C 24.3°F-4.3°C 75% 2.9 mph NNE4.7 kmh NNE 9.0 mph14.5 kmh 30.01 in1016.3 mb 0.00 in0.0 mm 0.00 in/hr0.0 mm/hr 0.00 in0.0 mm
12:01 AM 31.3°F-0.4°C 24.3°F-4.3°C 75% 2.9 mph NE4.7 kmh NE 6.0 mph9.7 kmh 30.01 in1016.3 mb 0.00 in0.0 mm 0.00 in/hr0.0 mm/hr 0.00 in0.0 mm
12:00 AM 31.3°F-0.4°C 24.3°F-4.3°C 75% 2.9 mph NNW4.7 kmh NNW 4.9 mph7.9 kmh 30.01 in1016.3 mb 0.00 in0.0 mm 0.00 in/hr0.0 mm/hr 0.00 in0.0 mm
WeatherForYou.com, LLC is not responsible for any damages or problems caused by this service. Current weather conditions are obtained from the closest station including government and personal stations which may have varying degrees of accuracy. Weather forecasts are derived from the NOAA NDFD and obtained through HAMweather's Aeris Weather API. Like all things, this site belongs to Jesus Christ... He just trusts me to maintain it. If you have any questions or comments email webmaster@weatherforyou.com

Copyright © 2015, WeatherForYou.com LLC. All rights reserved.